<?xml version="1.0" encoding="UTF-8" standalone="no" ?>
<gpx xmlns="http://www.topografix.com/GPX/1/1" xmlns:xsi="http://www.w3.org/2001/XMLSchema-instance" xsi:schemaLocation="http://www.topografix.com/GPX/1/1 http://www.topografix.com/GPX/1/1/gpx.xsd" version="1.1" creator="VisuGPX - https://www.visugpx.com">
  <metadata>
    <name>Revel-belmont-pinet-revel</name>
    <desc><![CDATA[File with points/tracks from Locus Map/3.48.2]]></desc>
  </metadata>
  <trk>
    <name><![CDATA[2020-10-11 11:28:05]]></name>
    <desc><![CDATA[Uriage]]></desc>
    <extensions>
      <line xmlns="http://www.topografix.com/GPX/gpx_style/0/2">
        <color>0000FF</color>
        <opacity>0.59</opacity>
        <width>6.0</width>
      </line>
    </extensions>
    <trkseg>
      <trkpt lat="45.18386" lon="5.87389">
        <ele>704.64</ele>
        <time>2020-10-11T09:29:10.000Z</time>
      </trkpt>
      <trkpt lat="45.18386" lon="5.87403">
        <ele>704.29</ele>
        <time>2020-10-11T09:31:40.000Z</time>
      </trkpt>
      <trkpt lat="45.18379" lon="5.87416">
        <ele>703.78</ele>
        <time>2020-10-11T09:31:45.000Z</time>
      </trkpt>
      <trkpt lat="45.18372" lon="5.87435">
        <ele>703.33</ele>
        <time>2020-10-11T09:31:50.000Z</time>
      </trkpt>
      <trkpt lat="45.18363" lon="5.87455">
        <ele>703.84</ele>
        <time>2020-10-11T09:31:55.000Z</time>
      </trkpt>
      <trkpt lat="45.18356" lon="5.87476">
        <ele>707.55</ele>
        <time>2020-10-11T09:32:00.000Z</time>
      </trkpt>
      <trkpt lat="45.18348" lon="5.87495">
        <ele>709.52</ele>
        <time>2020-10-11T09:32:05.000Z</time>
      </trkpt>
      <trkpt lat="45.18342" lon="5.87513">
        <ele>709.48</ele>
        <time>2020-10-11T09:32:10.000Z</time>
      </trkpt>
      <trkpt lat="45.18336" lon="5.87534">
        <ele>708.76</ele>
        <time>2020-10-11T09:32:15.000Z</time>
      </trkpt>
      <trkpt lat="45.1833" lon="5.87556">
        <ele>709.72</ele>
        <time>2020-10-11T09:32:20.000Z</time>
      </trkpt>
      <trkpt lat="45.18324" lon="5.87576">
        <ele>709.89</ele>
        <time>2020-10-11T09:32:25.000Z</time>
      </trkpt>
      <trkpt lat="45.18318" lon="5.87599">
        <ele>712.39</ele>
        <time>2020-10-11T09:32:30.000Z</time>
      </trkpt>
      <trkpt lat="45.18311" lon="5.8762">
        <ele>713.51</ele>
        <time>2020-10-11T09:32:35.000Z</time>
      </trkpt>
      <trkpt lat="45.18304" lon="5.87644">
        <ele>714.71</ele>
        <time>2020-10-11T09:32:40.000Z</time>
      </trkpt>
      <trkpt lat="45.183" lon="5.87667">
        <ele>718.79</ele>
        <time>2020-10-11T09:32:45.000Z</time>
      </trkpt>
      <trkpt lat="45.18298" lon="5.87689">
        <ele>720.34</ele>
        <time>2020-10-11T09:32:50.000Z</time>
      </trkpt>
      <trkpt lat="45.18294" lon="5.87705">
        <ele>721.28</ele>
        <time>2020-10-11T09:32:55.000Z</time>
      </trkpt>
      <trkpt lat="45.18293" lon="5.87721">
        <ele>722.89</ele>
        <time>2020-10-11T09:33:00.000Z</time>
      </trkpt>
      <trkpt lat="45.18287" lon="5.87743">
        <ele>722.14</ele>
        <time>2020-10-11T09:33:05.000Z</time>
      </trkpt>
      <trkpt lat="45.18282" lon="5.87765">
        <ele>719.75</ele>
        <time>2020-10-11T09:33:10.000Z</time>
      </trkpt>
      <trkpt lat="45.18278" lon="5.87788">
        <ele>722.41</ele>
        <time>2020-10-11T09:33:15.000Z</time>
      </trkpt>
      <trkpt lat="45.18273" lon="5.8781">
        <ele>727.17</ele>
        <time>2020-10-11T09:33:20.000Z</time>
      </trkpt>
      <trkpt lat="45.18269" lon="5.87832">
        <ele>733</ele>
        <time>2020-10-11T09:33:25.000Z</time>
      </trkpt>
      <trkpt lat="45.18265" lon="5.87855">
        <ele>736.94</ele>
        <time>2020-10-11T09:33:30.000Z</time>
      </trkpt>
      <trkpt lat="45.18261" lon="5.87879">
        <ele>739.62</ele>
        <time>2020-10-11T09:33:35.000Z</time>
      </trkpt>
      <trkpt lat="45.18257" lon="5.87903">
        <ele>744.18</ele>
        <time>2020-10-11T09:33:40.000Z</time>
      </trkpt>
      <trkpt lat="45.1826" lon="5.8793">
        <ele>743.85</ele>
        <time>2020-10-11T09:33:45.000Z</time>
      </trkpt>
      <trkpt lat="45.18262" lon="5.87957">
        <ele>744.52</ele>
        <time>2020-10-11T09:33:50.000Z</time>
      </trkpt>
      <trkpt lat="45.18258" lon="5.87983">
        <ele>748.22</ele>
        <time>2020-10-11T09:33:55.000Z</time>
      </trkpt>
      <trkpt lat="45.18245" lon="5.88003">
        <ele>751.87</ele>
        <time>2020-10-11T09:34:00.000Z</time>
      </trkpt>
      <trkpt lat="45.18237" lon="5.88021">
        <ele>751.57</ele>
        <time>2020-10-11T09:34:05.000Z</time>
      </trkpt>
      <trkpt lat="45.18236" lon="5.88035">
        <ele>752.44</ele>
        <time>2020-10-11T09:34:35.000Z</time>
      </trkpt>
      <trkpt lat="45.18227" lon="5.88052">
        <ele>752.77</ele>
        <time>2020-10-11T09:34:40.000Z</time>
      </trkpt>
      <trkpt lat="45.18215" lon="5.8807">
        <ele>755.23</ele>
        <time>2020-10-11T09:34:45.000Z</time>
      </trkpt>
      <trkpt lat="45.18201" lon="5.88091">
        <ele>755.1</ele>
        <time>2020-10-11T09:34:50.000Z</time>
      </trkpt>
      <trkpt lat="45.18186" lon="5.88112">
        <ele>755.03</ele>
        <time>2020-10-11T09:34:55.000Z</time>
      </trkpt>
      <trkpt lat="45.18168" lon="5.88138">
        <ele>753.45</ele>
        <time>2020-10-11T09:35:00.000Z</time>
      </trkpt>
      <trkpt lat="45.18149" lon="5.88168">
        <ele>751.71</ele>
        <time>2020-10-11T09:35:05.000Z</time>
      </trkpt>
      <trkpt lat="45.1813" lon="5.88192">
        <ele>752.77</ele>
        <time>2020-10-11T09:35:10.000Z</time>
      </trkpt>
      <trkpt lat="45.18111" lon="5.88222">
        <ele>752.09</ele>
        <time>2020-10-11T09:35:15.000Z</time>
      </trkpt>
      <trkpt lat="45.18094" lon="5.88248">
        <ele>747.99</ele>
        <time>2020-10-11T09:35:20.000Z</time>
      </trkpt>
      <trkpt lat="45.18081" lon="5.88271">
        <ele>750.47</ele>
        <time>2020-10-11T09:35:25.000Z</time>
      </trkpt>
      <trkpt lat="45.18068" lon="5.88302">
        <ele>750.16</ele>
        <time>2020-10-11T09:35:30.000Z</time>
      </trkpt>
      <trkpt lat="45.18062" lon="5.88325">
        <ele>752.12</ele>
        <time>2020-10-11T09:35:35.000Z</time>
      </trkpt>
      <trkpt lat="45.18049" lon="5.8836">
        <ele>755.48</ele>
        <time>2020-10-11T09:35:40.000Z</time>
      </trkpt>
      <trkpt lat="45.18039" lon="5.88389">
        <ele>756.36</ele>
        <time>2020-10-11T09:35:45.000Z</time>
      </trkpt>
      <trkpt lat="45.18027" lon="5.88416">
        <ele>755.53</ele>
        <time>2020-10-11T09:35:50.000Z</time>
      </trkpt>
      <trkpt lat="45.1801" lon="5.88432">
        <ele>755.91</ele>
        <time>2020-10-11T09:35:55.000Z</time>
      </trkpt>
      <trkpt lat="45.17988" lon="5.88445">
        <ele>757.17</ele>
        <time>2020-10-11T09:36:00.000Z</time>
      </trkpt>
      <trkpt lat="45.17964" lon="5.88454">
        <ele>759.73</ele>
        <time>2020-10-11T09:36:05.000Z</time>
      </trkpt>
      <trkpt lat="45.17944" lon="5.88468">
        <ele>758.75</ele>
        <time>2020-10-11T09:36:10.000Z</time>
      </trkpt>
      <trkpt lat="45.17918" lon="5.88482">
        <ele>759.04</ele>
        <time>2020-10-11T09:36:15.000Z</time>
      </trkpt>
      <trkpt lat="45.179" lon="5.88495">
        <ele>759.47</ele>
        <time>2020-10-11T09:36:20.000Z</time>
      </trkpt>
      <trkpt lat="45.17876" lon="5.88508">
        <ele>761.37</ele>
        <time>2020-10-11T09:36:25.000Z</time>
      </trkpt>
      <trkpt lat="45.17854" lon="5.88522">
        <ele>761.41</ele>
        <time>2020-10-11T09:36:30.000Z</time>
      </trkpt>
      <trkpt lat="45.17831" lon="5.88529">
        <ele>763.64</ele>
        <time>2020-10-11T09:36:35.000Z</time>
      </trkpt>
      <trkpt lat="45.17806" lon="5.88536">
        <ele>764.13</ele>
        <time>2020-10-11T09:36:40.000Z</time>
      </trkpt>
      <trkpt lat="45.17779" lon="5.8854">
        <ele>765.57</ele>
        <time>2020-10-11T09:36:45.000Z</time>
      </trkpt>
      <trkpt lat="45.1775" lon="5.88532">
        <ele>768.98</ele>
        <time>2020-10-11T09:36:50.000Z</time>
      </trkpt>
      <trkpt lat="45.17724" lon="5.88523">
        <ele>768.53</ele>
        <time>2020-10-11T09:36:55.000Z</time>
      </trkpt>
      <trkpt lat="45.17697" lon="5.88512">
        <ele>768.32</ele>
        <time>2020-10-11T09:37:00.000Z</time>
      </trkpt>
      <trkpt lat="45.17674" lon="5.88499">
        <ele>770.37</ele>
        <time>2020-10-11T09:37:05.000Z</time>
      </trkpt>
      <trkpt lat="45.17651" lon="5.88486">
        <ele>771.59</ele>
        <time>2020-10-11T09:37:10.000Z</time>
      </trkpt>
      <trkpt lat="45.17627" lon="5.88476">
        <ele>772.2</ele>
        <time>2020-10-11T09:37:15.000Z</time>
      </trkpt>
      <trkpt lat="45.17599" lon="5.88486">
        <ele>772.12</ele>
        <time>2020-10-11T09:37:20.000Z</time>
      </trkpt>
      <trkpt lat="45.1758" lon="5.88506">
        <ele>773.61</ele>
        <time>2020-10-11T09:37:25.000Z</time>
      </trkpt>
      <trkpt lat="45.17561" lon="5.88526">
        <ele>776.44</ele>
        <time>2020-10-11T09:37:30.000Z</time>
      </trkpt>
      <trkpt lat="45.1754" lon="5.88548">
        <ele>772.43</ele>
        <time>2020-10-11T09:37:35.000Z</time>
      </trkpt>
      <trkpt lat="45.17519" lon="5.88573">
        <ele>775.45</ele>
        <time>2020-10-11T09:37:40.000Z</time>
      </trkpt>
      <trkpt lat="45.17496" lon="5.88585">
        <ele>775.46</ele>
        <time>2020-10-11T09:37:45.000Z</time>
      </trkpt>
      <trkpt lat="45.17471" lon="5.88585">
        <ele>778.39</ele>
        <time>2020-10-11T09:37:50.000Z</time>
      </trkpt>
      <trkpt lat="45.17452" lon="5.88584">
        <ele>778.67</ele>
        <time>2020-10-11T09:37:55.000Z</time>
      </trkpt>
      <trkpt lat="45.17435" lon="5.8858">
        <ele>778.65</ele>
        <time>2020-10-11T09:38:00.000Z</time>
      </trkpt>
      <trkpt lat="45.17409" lon="5.8858">
        <ele>777.52</ele>
        <time>2020-10-11T09:38:05.000Z</time>
      </trkpt>
      <trkpt lat="45.17383" lon="5.88577">
        <ele>779.28</ele>
        <time>2020-10-11T09:38:10.000Z</time>
      </trkpt>
      <trkpt lat="45.17356" lon="5.88576">
        <ele>778.23</ele>
        <time>2020-10-11T09:38:15.000Z</time>
      </trkpt>
      <trkpt lat="45.17329" lon="5.88575">
        <ele>777.57</ele>
        <time>2020-10-11T09:38:20.000Z</time>
      </trkpt>
      <trkpt lat="45.17305" lon="5.88576">
        <ele>777.03</ele>
        <time>2020-10-11T09:38:25.000Z</time>
      </trkpt>
      <trkpt lat="45.17281" lon="5.88576">
        <ele>778.87</ele>
        <time>2020-10-11T09:38:30.000Z</time>
      </trkpt>
      <trkpt lat="45.1726" lon="5.88573">
        <ele>780.16</ele>
        <time>2020-10-11T09:38:35.000Z</time>
      </trkpt>
      <trkpt lat="45.17242" lon="5.88589">
        <ele>781.92</ele>
        <time>2020-10-11T09:38:40.000Z</time>
      </trkpt>
      <trkpt lat="45.17219" lon="5.8861">
        <ele>778.54</ele>
        <time>2020-10-11T09:38:45.000Z</time>
      </trkpt>
      <trkpt lat="45.17198" lon="5.88639">
        <ele>778.17</ele>
        <time>2020-10-11T09:38:50.000Z</time>
      </trkpt>
      <trkpt lat="45.17175" lon="5.88663">
        <ele>782.23</ele>
        <time>2020-10-11T09:38:55.000Z</time>
      </trkpt>
      <trkpt lat="45.17149" lon="5.88685">
        <ele>784.56</ele>
        <time>2020-10-11T09:39:00.000Z</time>
      </trkpt>
      <trkpt lat="45.17125" lon="5.88703">
        <ele>786.13</ele>
        <time>2020-10-11T09:39:05.000Z</time>
      </trkpt>
      <trkpt lat="45.17101" lon="5.8872">
        <ele>783.99</ele>
        <time>2020-10-11T09:39:10.000Z</time>
      </trkpt>
      <trkpt lat="45.17073" lon="5.8871">
        <ele>786.21</ele>
        <time>2020-10-11T09:39:15.000Z</time>
      </trkpt>
      <trkpt lat="45.1705" lon="5.88683">
        <ele>789.41</ele>
        <time>2020-10-11T09:39:20.000Z</time>
      </trkpt>
      <trkpt lat="45.17028" lon="5.8867">
        <ele>788.32</ele>
        <time>2020-10-11T09:39:25.000Z</time>
      </trkpt>
      <trkpt lat="45.17" lon="5.88675">
        <ele>787.75</ele>
        <time>2020-10-11T09:39:30.000Z</time>
      </trkpt>
      <trkpt lat="45.16972" lon="5.88685">
        <ele>787.74</ele>
        <time>2020-10-11T09:39:35.000Z</time>
      </trkpt>
      <trkpt lat="45.16947" lon="5.88699">
        <ele>789.94</ele>
        <time>2020-10-11T09:39:40.000Z</time>
      </trkpt>
      <trkpt lat="45.16917" lon="5.88707">
        <ele>791.5</ele>
        <time>2020-10-11T09:39:45.000Z</time>
      </trkpt>
      <trkpt lat="45.16884" lon="5.88711">
        <ele>790.95</ele>
        <time>2020-10-11T09:39:50.000Z</time>
      </trkpt>
      <trkpt lat="45.16853" lon="5.88713">
        <ele>790.06</ele>
        <time>2020-10-11T09:39:55.000Z</time>
      </trkpt>
      <trkpt lat="45.16823" lon="5.8872">
        <ele>790.68</ele>
        <time>2020-10-11T09:40:00.000Z</time>
      </trkpt>
      <trkpt lat="45.16791" lon="5.88732">
        <ele>790.69</ele>
        <time>2020-10-11T09:40:05.000Z</time>
      </trkpt>
      <trkpt lat="45.16762" lon="5.88749">
        <ele>788.35</ele>
        <time>2020-10-11T09:40:10.000Z</time>
      </trkpt>
      <trkpt lat="45.16739" lon="5.88752">
        <ele>789.5</ele>
        <time>2020-10-11T09:40:15.000Z</time>
      </trkpt>
      <trkpt lat="45.16713" lon="5.88752">
        <ele>790.15</ele>
        <time>2020-10-11T09:40:20.000Z</time>
      </trkpt>
      <trkpt lat="45.1669" lon="5.88747">
        <ele>789.21</ele>
        <time>2020-10-11T09:40:25.000Z</time>
      </trkpt>
      <trkpt lat="45.16657" lon="5.88737">
        <ele>791.43</ele>
        <time>2020-10-11T09:40:30.000Z</time>
      </trkpt>
      <trkpt lat="45.16618" lon="5.8873">
        <ele>790.87</ele>
        <time>2020-10-11T09:40:35.000Z</time>
      </trkpt>
      <trkpt lat="45.16576" lon="5.88728">
        <ele>787.69</ele>
        <time>2020-10-11T09:40:40.000Z</time>
      </trkpt>
      <trkpt lat="45.16537" lon="5.887">
        <ele>786.73</ele>
        <time>2020-10-11T09:40:45.000Z</time>
      </trkpt>
      <trkpt lat="45.16518" lon="5.88657">
        <ele>784.65</ele>
        <time>2020-10-11T09:40:50.000Z</time>
      </trkpt>
      <trkpt lat="45.16509" lon="5.8861">
        <ele>783.25</ele>
        <time>2020-10-11T09:40:55.000Z</time>
      </trkpt>
      <trkpt lat="45.16513" lon="5.88561">
        <ele>783.45</ele>
        <time>2020-10-11T09:41:00.000Z</time>
      </trkpt>
      <trkpt lat="45.16529" lon="5.8853">
        <ele>783.05</ele>
        <time>2020-10-11T09:41:05.000Z</time>
      </trkpt>
      <trkpt lat="45.16547" lon="5.88516">
        <ele>782.09</ele>
        <time>2020-10-11T09:41:10.000Z</time>
      </trkpt>
      <trkpt lat="45.16565" lon="5.88511">
        <ele>783.13</ele>
        <time>2020-10-11T09:41:15.000Z</time>
      </trkpt>
      <trkpt lat="45.16585" lon="5.88502">
        <ele>783.23</ele>
        <time>2020-10-11T09:41:20.000Z</time>
      </trkpt>
      <trkpt lat="45.16605" lon="5.8849">
        <ele>784.32</ele>
        <time>2020-10-11T09:41:25.000Z</time>
      </trkpt>
      <trkpt lat="45.16636" lon="5.88477">
        <ele>784.43</ele>
        <time>2020-10-11T09:41:30.000Z</time>
      </trkpt>
      <trkpt lat="45.16658" lon="5.88468">
        <ele>787.3</ele>
        <time>2020-10-11T09:41:35.000Z</time>
      </trkpt>
      <trkpt lat="45.16682" lon="5.88472">
        <ele>790.57</ele>
        <time>2020-10-11T09:41:40.000Z</time>
      </trkpt>
      <trkpt lat="45.16707" lon="5.88468">
        <ele>791.64</ele>
        <time>2020-10-11T09:41:45.000Z</time>
      </trkpt>
      <trkpt lat="45.16732" lon="5.88469">
        <ele>794.44</ele>
        <time>2020-10-11T09:41:50.000Z</time>
      </trkpt>
      <trkpt lat="45.16761" lon="5.88461">
        <ele>793.26</ele>
        <time>2020-10-11T09:41:55.000Z</time>
      </trkpt>
      <trkpt lat="45.16776" lon="5.88427">
        <ele>794.24</ele>
        <time>2020-10-11T09:42:00.000Z</time>
      </trkpt>
      <trkpt lat="45.16791" lon="5.88386">
        <ele>792.71</ele>
        <time>2020-10-11T09:42:05.000Z</time>
      </trkpt>
      <trkpt lat="45.16809" lon="5.88358">
        <ele>795.68</ele>
        <time>2020-10-11T09:42:10.000Z</time>
      </trkpt>
      <trkpt lat="45.16819" lon="5.8834">
        <ele>796.2</ele>
        <time>2020-10-11T09:42:15.000Z</time>
      </trkpt>
      <trkpt lat="45.16826" lon="5.8831">
        <ele>796.23</ele>
        <time>2020-10-11T09:42:20.000Z</time>
      </trkpt>
      <trkpt lat="45.16841" lon="5.8829">
        <ele>797.99</ele>
        <time>2020-10-11T09:42:25.000Z</time>
      </trkpt>
      <trkpt lat="45.16859" lon="5.88278">
        <ele>796.83</ele>
        <time>2020-10-11T09:42:30.000Z</time>
      </trkpt>
      <trkpt lat="45.16874" lon="5.88265">
        <ele>798.71</ele>
        <time>2020-10-11T09:42:35.000Z</time>
      </trkpt>
      <trkpt lat="45.16897" lon="5.88248">
        <ele>800.32</ele>
        <time>2020-10-11T09:42:40.000Z</time>
      </trkpt>
      <trkpt lat="45.16917" lon="5.88244">
        <ele>803.12</ele>
        <time>2020-10-11T09:42:45.000Z</time>
      </trkpt>
      <trkpt lat="45.16931" lon="5.88234">
        <ele>803.95</ele>
        <time>2020-10-11T09:42:50.000Z</time>
      </trkpt>
      <trkpt lat="45.16951" lon="5.8822">
        <ele>801.96</ele>
        <time>2020-10-11T09:42:55.000Z</time>
      </trkpt>
      <trkpt lat="45.1697" lon="5.88202">
        <ele>803.58</ele>
        <time>2020-10-11T09:43:00.000Z</time>
      </trkpt>
      <trkpt lat="45.16989" lon="5.88184">
        <ele>804.06</ele>
        <time>2020-10-11T09:43:05.000Z</time>
      </trkpt>
      <trkpt lat="45.17008" lon="5.88175">
        <ele>809.1</ele>
        <time>2020-10-11T09:43:10.000Z</time>
      </trkpt>
      <trkpt lat="45.17024" lon="5.88166">
        <ele>811.2</ele>
        <time>2020-10-11T09:43:15.000Z</time>
      </trkpt>
      <trkpt lat="45.17039" lon="5.88157">
        <ele>811.82</ele>
        <time>2020-10-11T09:43:20.000Z</time>
      </trkpt>
      <trkpt lat="45.17058" lon="5.88146">
        <ele>816.47</ele>
        <time>2020-10-11T09:43:25.000Z</time>
      </trkpt>
      <trkpt lat="45.17073" lon="5.88137">
        <ele>816.24</ele>
        <time>2020-10-11T09:43:30.000Z</time>
      </trkpt>
      <trkpt lat="45.17095" lon="5.88115">
        <ele>816.08</ele>
        <time>2020-10-11T09:43:35.000Z</time>
      </trkpt>
      <trkpt lat="45.17113" lon="5.8809">
        <ele>821.31</ele>
        <time>2020-10-11T09:43:40.000Z</time>
      </trkpt>
      <trkpt lat="45.17129" lon="5.88068">
        <ele>820.15</ele>
        <time>2020-10-11T09:43:45.000Z</time>
      </trkpt>
      <trkpt lat="45.17143" lon="5.88038">
        <ele>822.36</ele>
        <time>2020-10-11T09:43:50.000Z</time>
      </trkpt>
      <trkpt lat="45.17158" lon="5.88013">
        <ele>824.72</ele>
        <time>2020-10-11T09:43:55.000Z</time>
      </trkpt>
      <trkpt lat="45.17174" lon="5.87986">
        <ele>825.92</ele>
        <time>2020-10-11T09:44:00.000Z</time>
      </trkpt>
      <trkpt lat="45.17188" lon="5.87962">
        <ele>828.75</ele>
        <time>2020-10-11T09:44:05.000Z</time>
      </trkpt>
      <trkpt lat="45.17202" lon="5.87933">
        <ele>829.06</ele>
        <time>2020-10-11T09:44:10.000Z</time>
      </trkpt>
      <trkpt lat="45.17222" lon="5.8791">
        <ele>830.47</ele>
        <time>2020-10-11T09:44:15.000Z</time>
      </trkpt>
      <trkpt lat="45.17237" lon="5.87883">
        <ele>830.38</ele>
        <time>2020-10-11T09:44:20.000Z</time>
      </trkpt>
      <trkpt lat="45.17256" lon="5.87854">
        <ele>833.78</ele>
        <time>2020-10-11T09:44:25.000Z</time>
      </trkpt>
      <trkpt lat="45.17277" lon="5.8783">
        <ele>835.71</ele>
        <time>2020-10-11T09:44:30.000Z</time>
      </trkpt>
      <trkpt lat="45.17297" lon="5.87803">
        <ele>837.75</ele>
        <time>2020-10-11T09:44:35.000Z</time>
      </trkpt>
      <trkpt lat="45.17316" lon="5.87767">
        <ele>839.26</ele>
        <time>2020-10-11T09:44:40.000Z</time>
      </trkpt>
      <trkpt lat="45.17335" lon="5.87736">
        <ele>841.97</ele>
        <time>2020-10-11T09:44:45.000Z</time>
      </trkpt>
      <trkpt lat="45.17352" lon="5.87703">
        <ele>845.56</ele>
        <time>2020-10-11T09:44:50.000Z</time>
      </trkpt>
      <trkpt lat="45.17362" lon="5.87667">
        <ele>846.25</ele>
        <time>2020-10-11T09:44:55.000Z</time>
      </trkpt>
      <trkpt lat="45.17367" lon="5.87636">
        <ele>847.94</ele>
        <time>2020-10-11T09:45:00.000Z</time>
      </trkpt>
      <trkpt lat="45.17367" lon="5.87607">
        <ele>850.52</ele>
        <time>2020-10-11T09:45:05.000Z</time>
      </trkpt>
      <trkpt lat="45.17361" lon="5.87572">
        <ele>852.54</ele>
        <time>2020-10-11T09:45:10.000Z</time>
      </trkpt>
      <trkpt lat="45.17357" lon="5.87546">
        <ele>851.24</ele>
        <time>2020-10-11T09:45:15.000Z</time>
      </trkpt>
      <trkpt lat="45.17354" lon="5.87524">
        <ele>849.08</ele>
        <time>2020-10-11T09:45:20.000Z</time>
      </trkpt>
      <trkpt lat="45.17346" lon="5.87506">
        <ele>847.5</ele>
        <time>2020-10-11T09:45:25.000Z</time>
      </trkpt>
      <trkpt lat="45.17337" lon="5.87489">
        <ele>847.02</ele>
        <time>2020-10-11T09:45:30.000Z</time>
      </trkpt>
      <trkpt lat="45.1733" lon="5.87479">
        <ele>843.46</ele>
        <time>2020-10-11T09:45:35.000Z</time>
      </trkpt>
      <trkpt lat="45.17323" lon="5.87469">
        <ele>838.72</ele>
        <time>2020-10-11T09:45:43.000Z</time>
      </trkpt>
      <trkpt lat="45.17316" lon="5.8746">
        <ele>839.26</ele>
        <time>2020-10-11T09:45:50.000Z</time>
      </trkpt>
      <trkpt lat="45.17307" lon="5.87451">
        <ele>839.54</ele>
        <time>2020-10-11T09:45:57.000Z</time>
      </trkpt>
      <trkpt lat="45.17295" lon="5.8744">
        <ele>839.05</ele>
        <time>2020-10-11T09:46:02.000Z</time>
      </trkpt>
      <trkpt lat="45.17285" lon="5.87432">
        <ele>840.74</ele>
        <time>2020-10-11T09:46:07.000Z</time>
      </trkpt>
      <trkpt lat="45.1727" lon="5.87422">
        <ele>838.68</ele>
        <time>2020-10-11T09:46:12.000Z</time>
      </trkpt>
      <trkpt lat="45.1725" lon="5.874">
        <ele>837.38</ele>
        <time>2020-10-11T09:46:17.000Z</time>
      </trkpt>
      <trkpt lat="45.17233" lon="5.87379">
        <ele>833.26</ele>
        <time>2020-10-11T09:46:22.000Z</time>
      </trkpt>
      <trkpt lat="45.17214" lon="5.87341">
        <ele>833.65</ele>
        <time>2020-10-11T09:46:27.000Z</time>
      </trkpt>
      <trkpt lat="45.17207" lon="5.87296">
        <ele>830.64</ele>
        <time>2020-10-11T09:46:32.000Z</time>
      </trkpt>
      <trkpt lat="45.17199" lon="5.87246">
        <ele>829.8</ele>
        <time>2020-10-11T09:46:37.000Z</time>
      </trkpt>
      <trkpt lat="45.17186" lon="5.87198">
        <ele>829.49</ele>
        <time>2020-10-11T09:46:42.000Z</time>
      </trkpt>
      <trkpt lat="45.17171" lon="5.87147">
        <ele>827.55</ele>
        <time>2020-10-11T09:46:47.000Z</time>
      </trkpt>
      <trkpt lat="45.1715" lon="5.87092">
        <ele>825.61</ele>
        <time>2020-10-11T09:46:52.000Z</time>
      </trkpt>
      <trkpt lat="45.17122" lon="5.87029">
        <ele>827.03</ele>
        <time>2020-10-11T09:46:57.000Z</time>
      </trkpt>
      <trkpt lat="45.17096" lon="5.86966">
        <ele>827.4</ele>
        <time>2020-10-11T09:47:02.000Z</time>
      </trkpt>
      <trkpt lat="45.17066" lon="5.86911">
        <ele>821.69</ele>
        <time>2020-10-11T09:47:07.000Z</time>
      </trkpt>
      <trkpt lat="45.17041" lon="5.86852">
        <ele>822.22</ele>
        <time>2020-10-11T09:47:12.000Z</time>
      </trkpt>
      <trkpt lat="45.17013" lon="5.86791">
        <ele>818.33</ele>
        <time>2020-10-11T09:47:17.000Z</time>
      </trkpt>
      <trkpt lat="45.16987" lon="5.86728">
        <ele>818.69</ele>
        <time>2020-10-11T09:47:22.000Z</time>
      </trkpt>
      <trkpt lat="45.16961" lon="5.86677">
        <ele>816.71</ele>
        <time>2020-10-11T09:47:27.000Z</time>
      </trkpt>
      <trkpt lat="45.1694" lon="5.8663">
        <ele>815.73</ele>
        <time>2020-10-11T09:47:32.000Z</time>
      </trkpt>
      <trkpt lat="45.1692" lon="5.86581">
        <ele>814.6</ele>
        <time>2020-10-11T09:47:37.000Z</time>
      </trkpt>
      <trkpt lat="45.16907" lon="5.86538">
        <ele>810.1</ele>
        <time>2020-10-11T09:47:42.000Z</time>
      </trkpt>
      <trkpt lat="45.16895" lon="5.86498">
        <ele>807.44</ele>
        <time>2020-10-11T09:47:47.000Z</time>
      </trkpt>
      <trkpt lat="45.16886" lon="5.86455">
        <ele>809.53</ele>
        <time>2020-10-11T09:47:52.000Z</time>
      </trkpt>
      <trkpt lat="45.16872" lon="5.86413">
        <ele>812.6</ele>
        <time>2020-10-11T09:47:57.000Z</time>
      </trkpt>
      <trkpt lat="45.16855" lon="5.86375">
        <ele>809.8</ele>
        <time>2020-10-11T09:48:02.000Z</time>
      </trkpt>
      <trkpt lat="45.16833" lon="5.86344">
        <ele>810.62</ele>
        <time>2020-10-11T09:48:07.000Z</time>
      </trkpt>
      <trkpt lat="45.16807" lon="5.86309">
        <ele>810.43</ele>
        <time>2020-10-11T09:48:12.000Z</time>
      </trkpt>
      <trkpt lat="45.1678" lon="5.86275">
        <ele>809.2</ele>
        <time>2020-10-11T09:48:17.000Z</time>
      </trkpt>
      <trkpt lat="45.16768" lon="5.8622">
        <ele>810.83</ele>
        <time>2020-10-11T09:48:22.000Z</time>
      </trkpt>
      <trkpt lat="45.16769" lon="5.86177">
        <ele>809.84</ele>
        <time>2020-10-11T09:48:27.000Z</time>
      </trkpt>
      <trkpt lat="45.16775" lon="5.86132">
        <ele>807.92</ele>
        <time>2020-10-11T09:48:32.000Z</time>
      </trkpt>
      <trkpt lat="45.16782" lon="5.86079">
        <ele>800.51</ele>
        <time>2020-10-11T09:48:37.000Z</time>
      </trkpt>
      <trkpt lat="45.16791" lon="5.86028">
        <ele>796.91</ele>
        <time>2020-10-11T09:48:42.000Z</time>
      </trkpt>
      <trkpt lat="45.16791" lon="5.85969">
        <ele>798.7</ele>
        <time>2020-10-11T09:48:47.000Z</time>
      </trkpt>
      <trkpt lat="45.16781" lon="5.85915">
        <ele>797.79</ele>
        <time>2020-10-11T09:48:52.000Z</time>
      </trkpt>
      <trkpt lat="45.16764" lon="5.85857">
        <ele>796.4</ele>
        <time>2020-10-11T09:48:57.000Z</time>
      </trkpt>
      <trkpt lat="45.16752" lon="5.85793">
        <ele>795.04</ele>
        <time>2020-10-11T09:49:02.000Z</time>
      </trkpt>
      <trkpt lat="45.1676" lon="5.85724">
        <ele>791.02</ele>
        <time>2020-10-11T09:49:07.000Z</time>
      </trkpt>
      <trkpt lat="45.16763" lon="5.85662">
        <ele>790.02</ele>
        <time>2020-10-11T09:49:12.000Z</time>
      </trkpt>
      <trkpt lat="45.16751" lon="5.85609">
        <ele>789.92</ele>
        <time>2020-10-11T09:49:17.000Z</time>
      </trkpt>
      <trkpt lat="45.16737" lon="5.85552">
        <ele>790.55</ele>
        <time>2020-10-11T09:49:22.000Z</time>
      </trkpt>
      <trkpt lat="45.16721" lon="5.85492">
        <ele>785.99</ele>
        <time>2020-10-11T09:49:27.000Z</time>
      </trkpt>
      <trkpt lat="45.16711" lon="5.85433">
        <ele>784.73</ele>
        <time>2020-10-11T09:49:32.000Z</time>
      </trkpt>
      <trkpt lat="45.16702" lon="5.85387">
        <ele>788.27</ele>
        <time>2020-10-11T09:49:37.000Z</time>
      </trkpt>
      <trkpt lat="45.1669" lon="5.85348">
        <ele>789.69</ele>
        <time>2020-10-11T09:49:42.000Z</time>
      </trkpt>
      <trkpt lat="45.16677" lon="5.85317">
        <ele>790.46</ele>
        <time>2020-10-11T09:49:47.000Z</time>
      </trkpt>
      <trkpt lat="45.16661" lon="5.85288">
        <ele>791.19</ele>
        <time>2020-10-11T09:49:52.000Z</time>
      </trkpt>
      <trkpt lat="45.16644" lon="5.85261">
        <ele>791.09</ele>
        <time>2020-10-11T09:49:57.000Z</time>
      </trkpt>
      <trkpt lat="45.16626" lon="5.85231">
        <ele>793.36</ele>
        <time>2020-10-11T09:50:02.000Z</time>
      </trkpt>
      <trkpt lat="45.16608" lon="5.85202">
        <ele>793.05</ele>
        <time>2020-10-11T09:50:07.000Z</time>
      </trkpt>
      <trkpt lat="45.16592" lon="5.85173">
        <ele>797.09</ele>
        <time>2020-10-11T09:50:12.000Z</time>
      </trkpt>
      <trkpt lat="45.16579" lon="5.85141">
        <ele>798.78</ele>
        <time>2020-10-11T09:50:17.000Z</time>
      </trkpt>
      <trkpt lat="45.16564" lon="5.85108">
        <ele>803.7</ele>
        <time>2020-10-11T09:50:22.000Z</time>
      </trkpt>
      <trkpt lat="45.1655" lon="5.85073">
        <ele>804.09</ele>
        <time>2020-10-11T09:50:27.000Z</time>
      </trkpt>
      <trkpt lat="45.16547" lon="5.85034">
        <ele>803.83</ele>
        <time>2020-10-11T09:50:32.000Z</time>
      </trkpt>
      <trkpt lat="45.16541" lon="5.85">
        <ele>803.73</ele>
        <time>2020-10-11T09:50:37.000Z</time>
      </trkpt>
      <trkpt lat="45.16537" lon="5.8498">
        <ele>803.28</ele>
        <time>2020-10-11T09:50:42.000Z</time>
      </trkpt>
      <trkpt lat="45.16535" lon="5.84965">
        <ele>803.76</ele>
        <time>2020-10-11T09:50:47.000Z</time>
      </trkpt>
      <trkpt lat="45.16533" lon="5.8495">
        <ele>809.11</ele>
        <time>2020-10-11T09:50:53.000Z</time>
      </trkpt>
      <trkpt lat="45.16529" lon="5.84939">
        <ele>810.81</ele>
        <time>2020-10-11T09:50:58.000Z</time>
      </trkpt>
      <trkpt lat="45.1653" lon="5.84952">
        <ele>812.09</ele>
        <time>2020-10-11T09:51:08.000Z</time>
      </trkpt>
      <trkpt lat="45.16534" lon="5.84939">
        <ele>812.79</ele>
        <time>2020-10-11T09:51:14.000Z</time>
      </trkpt>
      <trkpt lat="45.16531" lon="5.84926">
        <ele>811.61</ele>
        <time>2020-10-11T09:51:19.000Z</time>
      </trkpt>
      <trkpt lat="45.16529" lon="5.84911">
        <ele>811.97</ele>
        <time>2020-10-11T09:51:24.000Z</time>
      </trkpt>
      <trkpt lat="45.16527" lon="5.84897">
        <ele>812.23</ele>
        <time>2020-10-11T09:51:29.000Z</time>
      </trkpt>
      <trkpt lat="45.16527" lon="5.84882">
        <ele>811.47</ele>
        <time>2020-10-11T09:51:35.000Z</time>
      </trkpt>
      <trkpt lat="45.16525" lon="5.84869">
        <ele>814.17</ele>
        <time>2020-10-11T09:51:42.000Z</time>
      </trkpt>
      <trkpt lat="45.16523" lon="5.84855">
        <ele>812.34</ele>
        <time>2020-10-11T09:51:48.000Z</time>
      </trkpt>
      <trkpt lat="45.16513" lon="5.84854">
        <ele>812.56</ele>
        <time>2020-10-11T09:51:55.000Z</time>
      </trkpt>
      <trkpt lat="45.16506" lon="5.84845">
        <ele>810.66</ele>
        <time>2020-10-11T09:52:01.000Z</time>
      </trkpt>
      <trkpt lat="45.16499" lon="5.84837">
        <ele>807.57</ele>
        <time>2020-10-11T09:53:23.000Z</time>
      </trkpt>
      <trkpt lat="45.16482" lon="5.84833">
        <ele>807.28</ele>
        <time>2020-10-11T09:53:28.000Z</time>
      </trkpt>
      <trkpt lat="45.16465" lon="5.84863">
        <ele>802.53</ele>
        <time>2020-10-11T09:53:33.000Z</time>
      </trkpt>
      <trkpt lat="45.1644" lon="5.84906">
        <ele>799.39</ele>
        <time>2020-10-11T09:53:38.000Z</time>
      </trkpt>
      <trkpt lat="45.16404" lon="5.84949">
        <ele>797.04</ele>
        <time>2020-10-11T09:53:43.000Z</time>
      </trkpt>
      <trkpt lat="45.16368" lon="5.8499">
        <ele>795.11</ele>
        <time>2020-10-11T09:53:48.000Z</time>
      </trkpt>
      <trkpt lat="45.16324" lon="5.85039">
        <ele>790.37</ele>
        <time>2020-10-11T09:53:53.000Z</time>
      </trkpt>
      <trkpt lat="45.16305" lon="5.85112">
        <ele>788.31</ele>
        <time>2020-10-11T09:53:58.000Z</time>
      </trkpt>
      <trkpt lat="45.16288" lon="5.8518">
        <ele>783.42</ele>
        <time>2020-10-11T09:54:03.000Z</time>
      </trkpt>
      <trkpt lat="45.16237" lon="5.85157">
        <ele>782.54</ele>
        <time>2020-10-11T09:54:08.000Z</time>
      </trkpt>
      <trkpt lat="45.16191" lon="5.85126">
        <ele>781.09</ele>
        <time>2020-10-11T09:54:13.000Z</time>
      </trkpt>
      <trkpt lat="45.16141" lon="5.85089">
        <ele>777.12</ele>
        <time>2020-10-11T09:54:18.000Z</time>
      </trkpt>
      <trkpt lat="45.16103" lon="5.85027">
        <ele>771.45</ele>
        <time>2020-10-11T09:54:23.000Z</time>
      </trkpt>
      <trkpt lat="45.16078" lon="5.84958">
        <ele>765.59</ele>
        <time>2020-10-11T09:54:28.000Z</time>
      </trkpt>
      <trkpt lat="45.1602" lon="5.84937">
        <ele>758.78</ele>
        <time>2020-10-11T09:54:33.000Z</time>
      </trkpt>
      <trkpt lat="45.15956" lon="5.84927">
        <ele>753.71</ele>
        <time>2020-10-11T09:54:38.000Z</time>
      </trkpt>
      <trkpt lat="45.15901" lon="5.84919">
        <ele>749.05</ele>
        <time>2020-10-11T09:54:43.000Z</time>
      </trkpt>
      <trkpt lat="45.15877" lon="5.84882">
        <ele>742.75</ele>
        <time>2020-10-11T09:54:48.000Z</time>
      </trkpt>
      <trkpt lat="45.15857" lon="5.84865">
        <ele>740.79</ele>
        <time>2020-10-11T09:54:53.000Z</time>
      </trkpt>
      <trkpt lat="45.15838" lon="5.84879">
        <ele>744.75</ele>
        <time>2020-10-11T09:54:58.000Z</time>
      </trkpt>
      <trkpt lat="45.15823" lon="5.84901">
        <ele>746.27</ele>
        <time>2020-10-11T09:55:03.000Z</time>
      </trkpt>
      <trkpt lat="45.15809" lon="5.84916">
        <ele>745.62</ele>
        <time>2020-10-11T09:55:08.000Z</time>
      </trkpt>
      <trkpt lat="45.15799" lon="5.84917">
        <ele>746.06</ele>
        <time>2020-10-11T09:55:15.000Z</time>
      </trkpt>
      <trkpt lat="45.1579" lon="5.84907">
        <ele>740.67</ele>
        <time>2020-10-11T09:55:20.000Z</time>
      </trkpt>
      <trkpt lat="45.15768" lon="5.84893">
        <ele>740.82</ele>
        <time>2020-10-11T09:55:25.000Z</time>
      </trkpt>
      <trkpt lat="45.15743" lon="5.84887">
        <ele>736.7</ele>
        <time>2020-10-11T09:55:30.000Z</time>
      </trkpt>
      <trkpt lat="45.15705" lon="5.84889">
        <ele>731.02</ele>
        <time>2020-10-11T09:55:35.000Z</time>
      </trkpt>
      <trkpt lat="45.15669" lon="5.84903">
        <ele>729.19</ele>
        <time>2020-10-11T09:55:40.000Z</time>
      </trkpt>
      <trkpt lat="45.15639" lon="5.84901">
        <ele>724.89</ele>
        <time>2020-10-11T09:55:45.000Z</time>
      </trkpt>
      <trkpt lat="45.15613" lon="5.84897">
        <ele>719.76</ele>
        <time>2020-10-11T09:55:50.000Z</time>
      </trkpt>
      <trkpt lat="45.15599" lon="5.84875">
        <ele>725.21</ele>
        <time>2020-10-11T09:55:55.000Z</time>
      </trkpt>
      <trkpt lat="45.15601" lon="5.84863">
        <ele>723.33</ele>
        <time>2020-10-11T09:56:00.000Z</time>
      </trkpt>
      <trkpt lat="45.15606" lon="5.84847">
        <ele>720.3</ele>
        <time>2020-10-11T09:56:05.000Z</time>
      </trkpt>
      <trkpt lat="45.1562" lon="5.84815">
        <ele>719.53</ele>
        <time>2020-10-11T09:56:10.000Z</time>
      </trkpt>
      <trkpt lat="45.15633" lon="5.84774">
        <ele>718.94</ele>
        <time>2020-10-11T09:56:15.000Z</time>
      </trkpt>
      <trkpt lat="45.15634" lon="5.84733">
        <ele>714.11</ele>
        <time>2020-10-11T09:56:20.000Z</time>
      </trkpt>
      <trkpt lat="45.15606" lon="5.84745">
        <ele>709.73</ele>
        <time>2020-10-11T09:56:25.000Z</time>
      </trkpt>
      <trkpt lat="45.15576" lon="5.84761">
        <ele>707.18</ele>
        <time>2020-10-11T09:56:30.000Z</time>
      </trkpt>
      <trkpt lat="45.15549" lon="5.84781">
        <ele>702.69</ele>
        <time>2020-10-11T09:56:35.000Z</time>
      </trkpt>
      <trkpt lat="45.1554" lon="5.84791">
        <ele>703.34</ele>
        <time>2020-10-11T09:56:40.000Z</time>
      </trkpt>
      <trkpt lat="45.15534" lon="5.84803">
        <ele>700.46</ele>
        <time>2020-10-11T10:04:58.000Z</time>
      </trkpt>
      <trkpt lat="45.15523" lon="5.84815">
        <ele>697.5</ele>
        <time>2020-10-11T10:05:03.000Z</time>
      </trkpt>
      <trkpt lat="45.1551" lon="5.84833">
        <ele>702.96</ele>
        <time>2020-10-11T10:05:08.000Z</time>
      </trkpt>
      <trkpt lat="45.15495" lon="5.84858">
        <ele>700.31</ele>
        <time>2020-10-11T10:05:13.000Z</time>
      </trkpt>
      <trkpt lat="45.15481" lon="5.84894">
        <ele>697.89</ele>
        <time>2020-10-11T10:05:18.000Z</time>
      </trkpt>
      <trkpt lat="45.15465" lon="5.84929">
        <ele>695.75</ele>
        <time>2020-10-11T10:05:23.000Z</time>
      </trkpt>
      <trkpt lat="45.15439" lon="5.84947">
        <ele>699.72</ele>
        <time>2020-10-11T10:05:28.000Z</time>
      </trkpt>
      <trkpt lat="45.15413" lon="5.84976">
        <ele>698.97</ele>
        <time>2020-10-11T10:05:33.000Z</time>
      </trkpt>
      <trkpt lat="45.15401" lon="5.85025">
        <ele>696.97</ele>
        <time>2020-10-11T10:05:38.000Z</time>
      </trkpt>
      <trkpt lat="45.15382" lon="5.85074">
        <ele>690.71</ele>
        <time>2020-10-11T10:05:43.000Z</time>
      </trkpt>
      <trkpt lat="45.15374" lon="5.85037">
        <ele>690.72</ele>
        <time>2020-10-11T10:05:48.000Z</time>
      </trkpt>
      <trkpt lat="45.15368" lon="5.85011">
        <ele>693.46</ele>
        <time>2020-10-11T10:05:53.000Z</time>
      </trkpt>
      <trkpt lat="45.1536" lon="5.84985">
        <ele>693.33</ele>
        <time>2020-10-11T10:05:58.000Z</time>
      </trkpt>
      <trkpt lat="45.15353" lon="5.84958">
        <ele>692.34</ele>
        <time>2020-10-11T10:06:03.000Z</time>
      </trkpt>
      <trkpt lat="45.1536" lon="5.84927">
        <ele>693.53</ele>
        <time>2020-10-11T10:06:08.000Z</time>
      </trkpt>
      <trkpt lat="45.15367" lon="5.84904">
        <ele>696.26</ele>
        <time>2020-10-11T10:06:13.000Z</time>
      </trkpt>
      <trkpt lat="45.15366" lon="5.8487">
        <ele>699.37</ele>
        <time>2020-10-11T10:06:18.000Z</time>
      </trkpt>
      <trkpt lat="45.1535" lon="5.8483">
        <ele>697.96</ele>
        <time>2020-10-11T10:06:23.000Z</time>
      </trkpt>
      <trkpt lat="45.15333" lon="5.848">
        <ele>695.5</ele>
        <time>2020-10-11T10:06:28.000Z</time>
      </trkpt>
      <trkpt lat="45.15313" lon="5.84765">
        <ele>698</ele>
        <time>2020-10-11T10:06:33.000Z</time>
      </trkpt>
      <trkpt lat="45.15293" lon="5.84735">
        <ele>696.81</ele>
        <time>2020-10-11T10:06:38.000Z</time>
      </trkpt>
      <trkpt lat="45.15271" lon="5.84711">
        <ele>699.58</ele>
        <time>2020-10-11T10:06:43.000Z</time>
      </trkpt>
      <trkpt lat="45.15263" lon="5.84696">
        <ele>698.96</ele>
        <time>2020-10-11T10:06:48.000Z</time>
      </trkpt>
      <trkpt lat="45.15262" lon="5.84678">
        <ele>700.31</ele>
        <time>2020-10-11T10:07:10.000Z</time>
      </trkpt>
      <trkpt lat="45.15257" lon="5.8464">
        <ele>698.59</ele>
        <time>2020-10-11T10:07:15.000Z</time>
      </trkpt>
      <trkpt lat="45.1523" lon="5.84589">
        <ele>693.94</ele>
        <time>2020-10-11T10:07:20.000Z</time>
      </trkpt>
      <trkpt lat="45.15184" lon="5.84539">
        <ele>690.06</ele>
        <time>2020-10-11T10:07:25.000Z</time>
      </trkpt>
      <trkpt lat="45.15128" lon="5.84494">
        <ele>684.94</ele>
        <time>2020-10-11T10:07:30.000Z</time>
      </trkpt>
      <trkpt lat="45.15065" lon="5.84476">
        <ele>679.29</ele>
        <time>2020-10-11T10:07:35.000Z</time>
      </trkpt>
      <trkpt lat="45.15032" lon="5.84412">
        <ele>674.87</ele>
        <time>2020-10-11T10:07:40.000Z</time>
      </trkpt>
      <trkpt lat="45.15067" lon="5.84353">
        <ele>672.03</ele>
        <time>2020-10-11T10:07:45.000Z</time>
      </trkpt>
      <trkpt lat="45.15129" lon="5.84336">
        <ele>663.81</ele>
        <time>2020-10-11T10:07:50.000Z</time>
      </trkpt>
      <trkpt lat="45.1516" lon="5.84265">
        <ele>659.67</ele>
        <time>2020-10-11T10:07:55.000Z</time>
      </trkpt>
      <trkpt lat="45.15209" lon="5.84202">
        <ele>651.38</ele>
        <time>2020-10-11T10:08:00.000Z</time>
      </trkpt>
      <trkpt lat="45.15267" lon="5.84152">
        <ele>644.92</ele>
        <time>2020-10-11T10:08:05.000Z</time>
      </trkpt>
      <trkpt lat="45.15335" lon="5.84124">
        <ele>636.72</ele>
        <time>2020-10-11T10:08:10.000Z</time>
      </trkpt>
      <trkpt lat="45.15383" lon="5.84074">
        <ele>631.01</ele>
        <time>2020-10-11T10:08:15.000Z</time>
      </trkpt>
      <trkpt lat="45.15433" lon="5.84043">
        <ele>629.91</ele>
        <time>2020-10-11T10:08:20.000Z</time>
      </trkpt>
      <trkpt lat="45.1548" lon="5.84045">
        <ele>626.27</ele>
        <time>2020-10-11T10:08:25.000Z</time>
      </trkpt>
      <trkpt lat="45.15515" lon="5.84064">
        <ele>622.24</ele>
        <time>2020-10-11T10:08:30.000Z</time>
      </trkpt>
      <trkpt lat="45.15521" lon="5.84042">
        <ele>625.87</ele>
        <time>2020-10-11T10:08:35.000Z</time>
      </trkpt>
      <trkpt lat="45.15507" lon="5.8402">
        <ele>622.86</ele>
        <time>2020-10-11T10:08:40.000Z</time>
      </trkpt>
      <trkpt lat="45.15482" lon="5.83995">
        <ele>620.63</ele>
        <time>2020-10-11T10:08:45.000Z</time>
      </trkpt>
      <trkpt lat="45.15454" lon="5.83965">
        <ele>619.31</ele>
        <time>2020-10-11T10:08:50.000Z</time>
      </trkpt>
      <trkpt lat="45.15419" lon="5.83939">
        <ele>619.92</ele>
        <time>2020-10-11T10:08:55.000Z</time>
      </trkpt>
      <trkpt lat="45.15376" lon="5.83921">
        <ele>615.92</ele>
        <time>2020-10-11T10:09:00.000Z</time>
      </trkpt>
      <trkpt lat="45.15342" lon="5.83879">
        <ele>612.33</ele>
        <time>2020-10-11T10:09:05.000Z</time>
      </trkpt>
      <trkpt lat="45.15316" lon="5.83849">
        <ele>609.36</ele>
        <time>2020-10-11T10:09:10.000Z</time>
      </trkpt>
      <trkpt lat="45.15284" lon="5.83847">
        <ele>607.94</ele>
        <time>2020-10-11T10:09:15.000Z</time>
      </trkpt>
      <trkpt lat="45.15255" lon="5.83847">
        <ele>606.2</ele>
        <time>2020-10-11T10:09:20.000Z</time>
      </trkpt>
      <trkpt lat="45.1523" lon="5.83829">
        <ele>602.05</ele>
        <time>2020-10-11T10:09:25.000Z</time>
      </trkpt>
      <trkpt lat="45.15212" lon="5.83809">
        <ele>603.01</ele>
        <time>2020-10-11T10:09:30.000Z</time>
      </trkpt>
      <trkpt lat="45.15204" lon="5.83804">
        <ele>601.51</ele>
        <time>2020-10-11T10:09:35.000Z</time>
      </trkpt>
      <trkpt lat="45.15195" lon="5.83796">
        <ele>598.58</ele>
        <time>2020-10-11T10:09:42.000Z</time>
      </trkpt>
      <trkpt lat="45.15188" lon="5.83786">
        <ele>596.78</ele>
        <time>2020-10-11T10:09:47.000Z</time>
      </trkpt>
      <trkpt lat="45.15176" lon="5.83776">
        <ele>596.94</ele>
        <time>2020-10-11T10:09:52.000Z</time>
      </trkpt>
      <trkpt lat="45.15152" lon="5.83758">
        <ele>594.21</ele>
        <time>2020-10-11T10:09:57.000Z</time>
      </trkpt>
      <trkpt lat="45.15123" lon="5.83735">
        <ele>589.91</ele>
        <time>2020-10-11T10:10:02.000Z</time>
      </trkpt>
      <trkpt lat="45.15098" lon="5.83717">
        <ele>594.14</ele>
        <time>2020-10-11T10:10:07.000Z</time>
      </trkpt>
      <trkpt lat="45.15082" lon="5.83728">
        <ele>592.92</ele>
        <time>2020-10-11T10:10:12.000Z</time>
      </trkpt>
      <trkpt lat="45.15073" lon="5.83745">
        <ele>596.47</ele>
        <time>2020-10-11T10:10:17.000Z</time>
      </trkpt>
      <trkpt lat="45.15059" lon="5.83769">
        <ele>594.93</ele>
        <time>2020-10-11T10:10:22.000Z</time>
      </trkpt>
      <trkpt lat="45.1504" lon="5.8379">
        <ele>597.52</ele>
        <time>2020-10-11T10:10:27.000Z</time>
      </trkpt>
      <trkpt lat="45.1502" lon="5.83811">
        <ele>597.36</ele>
        <time>2020-10-11T10:10:32.000Z</time>
      </trkpt>
      <trkpt lat="45.15" lon="5.83821">
        <ele>590.41</ele>
        <time>2020-10-11T10:10:37.000Z</time>
      </trkpt>
      <trkpt lat="45.14978" lon="5.83834">
        <ele>590.81</ele>
        <time>2020-10-11T10:10:42.000Z</time>
      </trkpt>
      <trkpt lat="45.14955" lon="5.83844">
        <ele>586.17</ele>
        <time>2020-10-11T10:10:47.000Z</time>
      </trkpt>
      <trkpt lat="45.14931" lon="5.83849">
        <ele>584.54</ele>
        <time>2020-10-11T10:10:52.000Z</time>
      </trkpt>
      <trkpt lat="45.14908" lon="5.83855">
        <ele>583.51</ele>
        <time>2020-10-11T10:10:57.000Z</time>
      </trkpt>
      <trkpt lat="45.14882" lon="5.83855">
        <ele>589.17</ele>
        <time>2020-10-11T10:11:02.000Z</time>
      </trkpt>
      <trkpt lat="45.14859" lon="5.8387">
        <ele>590.8</ele>
        <time>2020-10-11T10:11:07.000Z</time>
      </trkpt>
      <trkpt lat="45.14833" lon="5.83878">
        <ele>592.11</ele>
        <time>2020-10-11T10:11:12.000Z</time>
      </trkpt>
      <trkpt lat="45.14807" lon="5.83885">
        <ele>595.53</ele>
        <time>2020-10-11T10:11:17.000Z</time>
      </trkpt>
      <trkpt lat="45.14782" lon="5.83892">
        <ele>595.41</ele>
        <time>2020-10-11T10:11:22.000Z</time>
      </trkpt>
      <trkpt lat="45.14756" lon="5.83898">
        <ele>594.93</ele>
        <time>2020-10-11T10:11:27.000Z</time>
      </trkpt>
      <trkpt lat="45.14728" lon="5.83906">
        <ele>592.7</ele>
        <time>2020-10-11T10:11:32.000Z</time>
      </trkpt>
      <trkpt lat="45.14698" lon="5.83908">
        <ele>592.84</ele>
        <time>2020-10-11T10:11:37.000Z</time>
      </trkpt>
      <trkpt lat="45.14665" lon="5.83908">
        <ele>591.83</ele>
        <time>2020-10-11T10:11:42.000Z</time>
      </trkpt>
      <trkpt lat="45.1463" lon="5.83903">
        <ele>591.87</ele>
        <time>2020-10-11T10:11:47.000Z</time>
      </trkpt>
      <trkpt lat="45.14598" lon="5.83902">
        <ele>594.48</ele>
        <time>2020-10-11T10:11:52.000Z</time>
      </trkpt>
      <trkpt lat="45.14569" lon="5.8391">
        <ele>594.35</ele>
        <time>2020-10-11T10:11:57.000Z</time>
      </trkpt>
      <trkpt lat="45.14539" lon="5.83922">
        <ele>595.11</ele>
        <time>2020-10-11T10:12:02.000Z</time>
      </trkpt>
      <trkpt lat="45.14517" lon="5.8393">
        <ele>597.01</ele>
        <time>2020-10-11T10:12:07.000Z</time>
      </trkpt>
      <trkpt lat="45.14496" lon="5.83941">
        <ele>598.43</ele>
        <time>2020-10-11T10:12:12.000Z</time>
      </trkpt>
      <trkpt lat="45.14472" lon="5.83947">
        <ele>594.25</ele>
        <time>2020-10-11T10:12:17.000Z</time>
      </trkpt>
      <trkpt lat="45.1444" lon="5.83956">
        <ele>595.35</ele>
        <time>2020-10-11T10:12:22.000Z</time>
      </trkpt>
      <trkpt lat="45.14409" lon="5.83966">
        <ele>595.56</ele>
        <time>2020-10-11T10:12:27.000Z</time>
      </trkpt>
      <trkpt lat="45.14396" lon="5.84003">
        <ele>595.11</ele>
        <time>2020-10-11T10:12:32.000Z</time>
      </trkpt>
      <trkpt lat="45.14381" lon="5.84037">
        <ele>594.68</ele>
        <time>2020-10-11T10:12:37.000Z</time>
      </trkpt>
      <trkpt lat="45.14358" lon="5.84069">
        <ele>590.45</ele>
        <time>2020-10-11T10:12:42.000Z</time>
      </trkpt>
      <trkpt lat="45.14327" lon="5.84099">
        <ele>586.32</ele>
        <time>2020-10-11T10:12:47.000Z</time>
      </trkpt>
      <trkpt lat="45.14297" lon="5.84131">
        <ele>585.27</ele>
        <time>2020-10-11T10:12:52.000Z</time>
      </trkpt>
      <trkpt lat="45.14254" lon="5.84143">
        <ele>584.63</ele>
        <time>2020-10-11T10:12:57.000Z</time>
      </trkpt>
      <trkpt lat="45.14241" lon="5.84088">
        <ele>586.49</ele>
        <time>2020-10-11T10:13:02.000Z</time>
      </trkpt>
      <trkpt lat="45.14219" lon="5.84047">
        <ele>584.53</ele>
        <time>2020-10-11T10:13:07.000Z</time>
      </trkpt>
      <trkpt lat="45.14182" lon="5.84034">
        <ele>584.68</ele>
        <time>2020-10-11T10:13:12.000Z</time>
      </trkpt>
      <trkpt lat="45.14146" lon="5.84041">
        <ele>585.06</ele>
        <time>2020-10-11T10:13:17.000Z</time>
      </trkpt>
      <trkpt lat="45.14115" lon="5.84057">
        <ele>585.62</ele>
        <time>2020-10-11T10:13:22.000Z</time>
      </trkpt>
      <trkpt lat="45.14084" lon="5.84082">
        <ele>583.73</ele>
        <time>2020-10-11T10:13:27.000Z</time>
      </trkpt>
      <trkpt lat="45.14049" lon="5.8408">
        <ele>583.85</ele>
        <time>2020-10-11T10:13:32.000Z</time>
      </trkpt>
      <trkpt lat="45.14018" lon="5.84069">
        <ele>584.88</ele>
        <time>2020-10-11T10:13:37.000Z</time>
      </trkpt>
      <trkpt lat="45.13989" lon="5.84064">
        <ele>585.96</ele>
        <time>2020-10-11T10:13:42.000Z</time>
      </trkpt>
      <trkpt lat="45.13952" lon="5.84055">
        <ele>583.7</ele>
        <time>2020-10-11T10:13:47.000Z</time>
      </trkpt>
      <trkpt lat="45.13913" lon="5.84025">
        <ele>581.28</ele>
        <time>2020-10-11T10:13:52.000Z</time>
      </trkpt>
      <trkpt lat="45.1387" lon="5.84005">
        <ele>578.11</ele>
        <time>2020-10-11T10:13:57.000Z</time>
      </trkpt>
      <trkpt lat="45.13826" lon="5.83994">
        <ele>576.32</ele>
        <time>2020-10-11T10:14:02.000Z</time>
      </trkpt>
      <trkpt lat="45.13786" lon="5.83969">
        <ele>573.73</ele>
        <time>2020-10-11T10:14:07.000Z</time>
      </trkpt>
      <trkpt lat="45.13758" lon="5.83949">
        <ele>571.18</ele>
        <time>2020-10-11T10:14:12.000Z</time>
      </trkpt>
      <trkpt lat="45.13733" lon="5.83948">
        <ele>569.87</ele>
        <time>2020-10-11T10:14:17.000Z</time>
      </trkpt>
      <trkpt lat="45.13701" lon="5.8394">
        <ele>570.33</ele>
        <time>2020-10-11T10:14:22.000Z</time>
      </trkpt>
      <trkpt lat="45.13669" lon="5.83927">
        <ele>571.02</ele>
        <time>2020-10-11T10:14:27.000Z</time>
      </trkpt>
      <trkpt lat="45.13646" lon="5.83919">
        <ele>569.64</ele>
        <time>2020-10-11T10:14:32.000Z</time>
      </trkpt>
      <trkpt lat="45.1362" lon="5.83904">
        <ele>571.8</ele>
        <time>2020-10-11T10:14:37.000Z</time>
      </trkpt>
      <trkpt lat="45.13596" lon="5.83889">
        <ele>570.8</ele>
        <time>2020-10-11T10:14:42.000Z</time>
      </trkpt>
      <trkpt lat="45.13571" lon="5.83882">
        <ele>570.9</ele>
        <time>2020-10-11T10:14:47.000Z</time>
      </trkpt>
      <trkpt lat="45.13549" lon="5.83878">
        <ele>570.77</ele>
        <time>2020-10-11T10:14:52.000Z</time>
      </trkpt>
      <trkpt lat="45.13523" lon="5.83866">
        <ele>570.89</ele>
        <time>2020-10-11T10:14:57.000Z</time>
      </trkpt>
      <trkpt lat="45.135" lon="5.83854">
        <ele>569.83</ele>
        <time>2020-10-11T10:15:02.000Z</time>
      </trkpt>
      <trkpt lat="45.13472" lon="5.83844">
        <ele>570.59</ele>
        <time>2020-10-11T10:15:07.000Z</time>
      </trkpt>
      <trkpt lat="45.13445" lon="5.83832">
        <ele>573.4</ele>
        <time>2020-10-11T10:15:12.000Z</time>
      </trkpt>
      <trkpt lat="45.13416" lon="5.8382">
        <ele>573.61</ele>
        <time>2020-10-11T10:15:17.000Z</time>
      </trkpt>
      <trkpt lat="45.13386" lon="5.83811">
        <ele>573.6</ele>
        <time>2020-10-11T10:15:22.000Z</time>
      </trkpt>
      <trkpt lat="45.13356" lon="5.83799">
        <ele>574.24</ele>
        <time>2020-10-11T10:15:27.000Z</time>
      </trkpt>
      <trkpt lat="45.13325" lon="5.83789">
        <ele>578.21</ele>
        <time>2020-10-11T10:15:32.000Z</time>
      </trkpt>
      <trkpt lat="45.13294" lon="5.83776">
        <ele>576.63</ele>
        <time>2020-10-11T10:15:37.000Z</time>
      </trkpt>
      <trkpt lat="45.13261" lon="5.83761">
        <ele>578.91</ele>
        <time>2020-10-11T10:15:42.000Z</time>
      </trkpt>
      <trkpt lat="45.13232" lon="5.83749">
        <ele>579.62</ele>
        <time>2020-10-11T10:15:47.000Z</time>
      </trkpt>
      <trkpt lat="45.13202" lon="5.83746">
        <ele>578.04</ele>
        <time>2020-10-11T10:15:52.000Z</time>
      </trkpt>
      <trkpt lat="45.13173" lon="5.83761">
        <ele>576.77</ele>
        <time>2020-10-11T10:15:57.000Z</time>
      </trkpt>
      <trkpt lat="45.13147" lon="5.83781">
        <ele>579.89</ele>
        <time>2020-10-11T10:16:02.000Z</time>
      </trkpt>
      <trkpt lat="45.13116" lon="5.83789">
        <ele>580.09</ele>
        <time>2020-10-11T10:16:07.000Z</time>
      </trkpt>
      <trkpt lat="45.13091" lon="5.8377">
        <ele>580.01</ele>
        <time>2020-10-11T10:16:12.000Z</time>
      </trkpt>
      <trkpt lat="45.13071" lon="5.83744">
        <ele>577.42</ele>
        <time>2020-10-11T10:16:17.000Z</time>
      </trkpt>
      <trkpt lat="45.13058" lon="5.83716">
        <ele>575.98</ele>
        <time>2020-10-11T10:16:22.000Z</time>
      </trkpt>
      <trkpt lat="45.13052" lon="5.83694">
        <ele>573.71</ele>
        <time>2020-10-11T10:16:27.000Z</time>
      </trkpt>
      <trkpt lat="45.1304" lon="5.83668">
        <ele>570.83</ele>
        <time>2020-10-11T10:16:32.000Z</time>
      </trkpt>
      <trkpt lat="45.13026" lon="5.8364">
        <ele>569.1</ele>
        <time>2020-10-11T10:16:37.000Z</time>
      </trkpt>
      <trkpt lat="45.13014" lon="5.83614">
        <ele>570.55</ele>
        <time>2020-10-11T10:16:42.000Z</time>
      </trkpt>
      <trkpt lat="45.13008" lon="5.83602">
        <ele>570.85</ele>
        <time>2020-10-11T10:16:47.000Z</time>
      </trkpt>
      <trkpt lat="45.12998" lon="5.83597">
        <ele>568.25</ele>
        <time>2020-10-11T10:18:26.000Z</time>
      </trkpt>
      <trkpt lat="45.12977" lon="5.83593">
        <ele>568.32</ele>
        <time>2020-10-11T10:18:31.000Z</time>
      </trkpt>
      <trkpt lat="45.12949" lon="5.83593">
        <ele>568.91</ele>
        <time>2020-10-11T10:18:36.000Z</time>
      </trkpt>
      <trkpt lat="45.12926" lon="5.83577">
        <ele>569.54</ele>
        <time>2020-10-11T10:18:41.000Z</time>
      </trkpt>
      <trkpt lat="45.12905" lon="5.83549">
        <ele>566.4</ele>
        <time>2020-10-11T10:18:46.000Z</time>
      </trkpt>
      <trkpt lat="45.1288" lon="5.83531">
        <ele>561.04</ele>
        <time>2020-10-11T10:18:51.000Z</time>
      </trkpt>
      <trkpt lat="45.1285" lon="5.83521">
        <ele>562.15</ele>
        <time>2020-10-11T10:18:56.000Z</time>
      </trkpt>
      <trkpt lat="45.12819" lon="5.83512">
        <ele>560.12</ele>
        <time>2020-10-11T10:19:01.000Z</time>
      </trkpt>
      <trkpt lat="45.12792" lon="5.83505">
        <ele>557.02</ele>
        <time>2020-10-11T10:19:06.000Z</time>
      </trkpt>
      <trkpt lat="45.12767" lon="5.83506">
        <ele>554.12</ele>
        <time>2020-10-11T10:19:11.000Z</time>
      </trkpt>
      <trkpt lat="45.12745" lon="5.83495">
        <ele>555.05</ele>
        <time>2020-10-11T10:19:16.000Z</time>
      </trkpt>
      <trkpt lat="45.12728" lon="5.83467">
        <ele>557.06</ele>
        <time>2020-10-11T10:19:21.000Z</time>
      </trkpt>
      <trkpt lat="45.12719" lon="5.83438">
        <ele>560.8</ele>
        <time>2020-10-11T10:19:26.000Z</time>
      </trkpt>
      <trkpt lat="45.12706" lon="5.83401">
        <ele>556.82</ele>
        <time>2020-10-11T10:19:31.000Z</time>
      </trkpt>
      <trkpt lat="45.12686" lon="5.83366">
        <ele>554.63</ele>
        <time>2020-10-11T10:19:36.000Z</time>
      </trkpt>
      <trkpt lat="45.12654" lon="5.83331">
        <ele>547.9</ele>
        <time>2020-10-11T10:19:41.000Z</time>
      </trkpt>
      <trkpt lat="45.12629" lon="5.83296">
        <ele>548.61</ele>
        <time>2020-10-11T10:19:46.000Z</time>
      </trkpt>
      <trkpt lat="45.12597" lon="5.83262">
        <ele>550.08</ele>
        <time>2020-10-11T10:19:51.000Z</time>
      </trkpt>
      <trkpt lat="45.1257" lon="5.83232">
        <ele>550.67</ele>
        <time>2020-10-11T10:19:56.000Z</time>
      </trkpt>
      <trkpt lat="45.12546" lon="5.83206">
        <ele>551.41</ele>
        <time>2020-10-11T10:20:01.000Z</time>
      </trkpt>
      <trkpt lat="45.12523" lon="5.83178">
        <ele>549.98</ele>
        <time>2020-10-11T10:20:06.000Z</time>
      </trkpt>
      <trkpt lat="45.12498" lon="5.83151">
        <ele>547.88</ele>
        <time>2020-10-11T10:20:11.000Z</time>
      </trkpt>
      <trkpt lat="45.12473" lon="5.83133">
        <ele>547.53</ele>
        <time>2020-10-11T10:20:16.000Z</time>
      </trkpt>
      <trkpt lat="45.12447" lon="5.83119">
        <ele>543.18</ele>
        <time>2020-10-11T10:20:21.000Z</time>
      </trkpt>
      <trkpt lat="45.12423" lon="5.831">
        <ele>547.47</ele>
        <time>2020-10-11T10:20:26.000Z</time>
      </trkpt>
      <trkpt lat="45.12401" lon="5.8308">
        <ele>550.51</ele>
        <time>2020-10-11T10:20:31.000Z</time>
      </trkpt>
      <trkpt lat="45.12383" lon="5.83056">
        <ele>546.13</ele>
        <time>2020-10-11T10:20:36.000Z</time>
      </trkpt>
      <trkpt lat="45.12356" lon="5.8303">
        <ele>546</ele>
        <time>2020-10-11T10:20:41.000Z</time>
      </trkpt>
      <trkpt lat="45.12324" lon="5.83016">
        <ele>541.63</ele>
        <time>2020-10-11T10:20:46.000Z</time>
      </trkpt>
      <trkpt lat="45.12294" lon="5.83001">
        <ele>541.99</ele>
        <time>2020-10-11T10:20:51.000Z</time>
      </trkpt>
      <trkpt lat="45.12265" lon="5.82986">
        <ele>544.24</ele>
        <time>2020-10-11T10:20:56.000Z</time>
      </trkpt>
      <trkpt lat="45.1225" lon="5.82974">
        <ele>543.92</ele>
        <time>2020-10-11T10:21:01.000Z</time>
      </trkpt>
      <trkpt lat="45.1224" lon="5.82964">
        <ele>544.01</ele>
        <time>2020-10-11T10:21:06.000Z</time>
      </trkpt>
      <trkpt lat="45.12224" lon="5.82957">
        <ele>542.38</ele>
        <time>2020-10-11T10:21:11.000Z</time>
      </trkpt>
      <trkpt lat="45.12201" lon="5.82943">
        <ele>540.07</ele>
        <time>2020-10-11T10:21:16.000Z</time>
      </trkpt>
      <trkpt lat="45.12181" lon="5.82933">
        <ele>541.25</ele>
        <time>2020-10-11T10:21:21.000Z</time>
      </trkpt>
      <trkpt lat="45.12155" lon="5.82923">
        <ele>544.87</ele>
        <time>2020-10-11T10:21:26.000Z</time>
      </trkpt>
      <trkpt lat="45.12126" lon="5.82907">
        <ele>547.5</ele>
        <time>2020-10-11T10:21:31.000Z</time>
      </trkpt>
      <trkpt lat="45.12106" lon="5.82895">
        <ele>546.45</ele>
        <time>2020-10-11T10:21:36.000Z</time>
      </trkpt>
      <trkpt lat="45.12085" lon="5.82878">
        <ele>546.66</ele>
        <time>2020-10-11T10:21:41.000Z</time>
      </trkpt>
      <trkpt lat="45.12061" lon="5.82866">
        <ele>549.25</ele>
        <time>2020-10-11T10:21:46.000Z</time>
      </trkpt>
      <trkpt lat="45.12037" lon="5.82863">
        <ele>549.27</ele>
        <time>2020-10-11T10:21:51.000Z</time>
      </trkpt>
      <trkpt lat="45.12012" lon="5.82854">
        <ele>553.4</ele>
        <time>2020-10-11T10:21:56.000Z</time>
      </trkpt>
      <trkpt lat="45.11998" lon="5.82845">
        <ele>554.16</ele>
        <time>2020-10-11T10:22:01.000Z</time>
      </trkpt>
      <trkpt lat="45.11984" lon="5.82842">
        <ele>554.52</ele>
        <time>2020-10-11T10:22:06.000Z</time>
      </trkpt>
      <trkpt lat="45.1197" lon="5.8284">
        <ele>553.53</ele>
        <time>2020-10-11T10:22:11.000Z</time>
      </trkpt>
      <trkpt lat="45.11961" lon="5.82833">
        <ele>553.5</ele>
        <time>2020-10-11T10:22:16.000Z</time>
      </trkpt>
      <trkpt lat="45.11953" lon="5.82821">
        <ele>549.23</ele>
        <time>2020-10-11T10:22:23.000Z</time>
      </trkpt>
      <trkpt lat="45.11941" lon="5.82805">
        <ele>547.87</ele>
        <time>2020-10-11T10:22:28.000Z</time>
      </trkpt>
      <trkpt lat="45.11927" lon="5.82798">
        <ele>546.62</ele>
        <time>2020-10-11T10:22:33.000Z</time>
      </trkpt>
      <trkpt lat="45.11915" lon="5.82789">
        <ele>544.3</ele>
        <time>2020-10-11T10:22:38.000Z</time>
      </trkpt>
      <trkpt lat="45.11902" lon="5.82772">
        <ele>542.54</ele>
        <time>2020-10-11T10:22:43.000Z</time>
      </trkpt>
      <trkpt lat="45.1189" lon="5.82751">
        <ele>543.57</ele>
        <time>2020-10-11T10:22:48.000Z</time>
      </trkpt>
      <trkpt lat="45.11873" lon="5.82723">
        <ele>543.6</ele>
        <time>2020-10-11T10:22:53.000Z</time>
      </trkpt>
      <trkpt lat="45.11859" lon="5.82702">
        <ele>542.33</ele>
        <time>2020-10-11T10:22:58.000Z</time>
      </trkpt>
      <trkpt lat="45.11845" lon="5.82675">
        <ele>545.3</ele>
        <time>2020-10-11T10:23:03.000Z</time>
      </trkpt>
      <trkpt lat="45.11829" lon="5.82641">
        <ele>543.47</ele>
        <time>2020-10-11T10:23:08.000Z</time>
      </trkpt>
      <trkpt lat="45.11808" lon="5.82601">
        <ele>541.1</ele>
        <time>2020-10-11T10:23:13.000Z</time>
      </trkpt>
      <trkpt lat="45.1179" lon="5.82558">
        <ele>538.43</ele>
        <time>2020-10-11T10:23:18.000Z</time>
      </trkpt>
      <trkpt lat="45.11764" lon="5.82513">
        <ele>535.21</ele>
        <time>2020-10-11T10:23:23.000Z</time>
      </trkpt>
      <trkpt lat="45.11737" lon="5.82471">
        <ele>534.47</ele>
        <time>2020-10-11T10:23:28.000Z</time>
      </trkpt>
      <trkpt lat="45.11706" lon="5.82434">
        <ele>532.16</ele>
        <time>2020-10-11T10:23:33.000Z</time>
      </trkpt>
      <trkpt lat="45.11664" lon="5.82399">
        <ele>531.27</ele>
        <time>2020-10-11T10:23:38.000Z</time>
      </trkpt>
      <trkpt lat="45.11616" lon="5.82362">
        <ele>524.71</ele>
        <time>2020-10-11T10:23:43.000Z</time>
      </trkpt>
      <trkpt lat="45.11565" lon="5.82333">
        <ele>524.4</ele>
        <time>2020-10-11T10:23:48.000Z</time>
      </trkpt>
      <trkpt lat="45.11524" lon="5.82309">
        <ele>524.35</ele>
        <time>2020-10-11T10:23:53.000Z</time>
      </trkpt>
      <trkpt lat="45.11486" lon="5.82284">
        <ele>523.9</ele>
        <time>2020-10-11T10:23:58.000Z</time>
      </trkpt>
      <trkpt lat="45.1145" lon="5.82265">
        <ele>523.23</ele>
        <time>2020-10-11T10:24:03.000Z</time>
      </trkpt>
      <trkpt lat="45.11418" lon="5.82246">
        <ele>521.07</ele>
        <time>2020-10-11T10:24:08.000Z</time>
      </trkpt>
      <trkpt lat="45.11386" lon="5.82229">
        <ele>521.19</ele>
        <time>2020-10-11T10:24:13.000Z</time>
      </trkpt>
      <trkpt lat="45.1136" lon="5.82212">
        <ele>519.08</ele>
        <time>2020-10-11T10:24:18.000Z</time>
      </trkpt>
      <trkpt lat="45.11347" lon="5.82201">
        <ele>517.18</ele>
        <time>2020-10-11T10:24:23.000Z</time>
      </trkpt>
      <trkpt lat="45.11348" lon="5.82185">
        <ele>508.36</ele>
        <time>2020-10-11T10:24:50.000Z</time>
      </trkpt>
      <trkpt lat="45.11347" lon="5.82155">
        <ele>505.58</ele>
        <time>2020-10-11T10:24:55.000Z</time>
      </trkpt>
      <trkpt lat="45.1135" lon="5.82112">
        <ele>501.77</ele>
        <time>2020-10-11T10:25:00.000Z</time>
      </trkpt>
      <trkpt lat="45.11351" lon="5.82068">
        <ele>502.22</ele>
        <time>2020-10-11T10:25:05.000Z</time>
      </trkpt>
      <trkpt lat="45.11328" lon="5.82041">
        <ele>498.96</ele>
        <time>2020-10-11T10:25:10.000Z</time>
      </trkpt>
      <trkpt lat="45.1129" lon="5.82033">
        <ele>496.84</ele>
        <time>2020-10-11T10:25:15.000Z</time>
      </trkpt>
      <trkpt lat="45.11251" lon="5.82038">
        <ele>493.19</ele>
        <time>2020-10-11T10:25:20.000Z</time>
      </trkpt>
      <trkpt lat="45.11211" lon="5.82063">
        <ele>490.66</ele>
        <time>2020-10-11T10:25:25.000Z</time>
      </trkpt>
      <trkpt lat="45.11172" lon="5.82089">
        <ele>486.35</ele>
        <time>2020-10-11T10:25:30.000Z</time>
      </trkpt>
      <trkpt lat="45.1114" lon="5.82118">
        <ele>483.68</ele>
        <time>2020-10-11T10:25:35.000Z</time>
      </trkpt>
      <trkpt lat="45.11125" lon="5.82166">
        <ele>482.76</ele>
        <time>2020-10-11T10:25:40.000Z</time>
      </trkpt>
      <trkpt lat="45.11113" lon="5.82219">
        <ele>483.74</ele>
        <time>2020-10-11T10:25:45.000Z</time>
      </trkpt>
      <trkpt lat="45.11097" lon="5.82249">
        <ele>480.96</ele>
        <time>2020-10-11T10:25:50.000Z</time>
      </trkpt>
      <trkpt lat="45.11059" lon="5.82244">
        <ele>489.47</ele>
        <time>2020-10-11T10:25:55.000Z</time>
      </trkpt>
      <trkpt lat="45.11028" lon="5.82227">
        <ele>487.58</ele>
        <time>2020-10-11T10:26:00.000Z</time>
      </trkpt>
      <trkpt lat="45.11001" lon="5.82214">
        <ele>484.77</ele>
        <time>2020-10-11T10:26:05.000Z</time>
      </trkpt>
      <trkpt lat="45.10996" lon="5.82192">
        <ele>480.11</ele>
        <time>2020-10-11T10:26:10.000Z</time>
      </trkpt>
      <trkpt lat="45.11" lon="5.82155">
        <ele>476.21</ele>
        <time>2020-10-11T10:26:15.000Z</time>
      </trkpt>
      <trkpt lat="45.11012" lon="5.821">
        <ele>472.22</ele>
        <time>2020-10-11T10:26:20.000Z</time>
      </trkpt>
      <trkpt lat="45.11016" lon="5.82034">
        <ele>468.91</ele>
        <time>2020-10-11T10:26:25.000Z</time>
      </trkpt>
      <trkpt lat="45.11013" lon="5.81967">
        <ele>469.27</ele>
        <time>2020-10-11T10:26:30.000Z</time>
      </trkpt>
      <trkpt lat="45.11014" lon="5.81904">
        <ele>467.04</ele>
        <time>2020-10-11T10:26:35.000Z</time>
      </trkpt>
      <trkpt lat="45.11034" lon="5.81863">
        <ele>461.15</ele>
        <time>2020-10-11T10:26:40.000Z</time>
      </trkpt>
      <trkpt lat="45.11066" lon="5.81867">
        <ele>454.09</ele>
        <time>2020-10-11T10:26:45.000Z</time>
      </trkpt>
      <trkpt lat="45.11103" lon="5.81895">
        <ele>446.91</ele>
        <time>2020-10-11T10:26:50.000Z</time>
      </trkpt>
      <trkpt lat="45.11137" lon="5.81904">
        <ele>441.31</ele>
        <time>2020-10-11T10:26:55.000Z</time>
      </trkpt>
      <trkpt lat="45.11163" lon="5.81885">
        <ele>435.14</ele>
        <time>2020-10-11T10:27:00.000Z</time>
      </trkpt>
      <trkpt lat="45.11196" lon="5.81848">
        <ele>431.9</ele>
        <time>2020-10-11T10:27:05.000Z</time>
      </trkpt>
      <trkpt lat="45.11224" lon="5.8181">
        <ele>425.76</ele>
        <time>2020-10-11T10:27:10.000Z</time>
      </trkpt>
      <trkpt lat="45.11251" lon="5.81772">
        <ele>425.52</ele>
        <time>2020-10-11T10:27:15.000Z</time>
      </trkpt>
      <trkpt lat="45.11276" lon="5.81731">
        <ele>418.85</ele>
        <time>2020-10-11T10:27:20.000Z</time>
      </trkpt>
      <trkpt lat="45.1129" lon="5.81687">
        <ele>414.16</ele>
        <time>2020-10-11T10:27:25.000Z</time>
      </trkpt>
      <trkpt lat="45.11298" lon="5.81668">
        <ele>409.12</ele>
        <time>2020-10-11T10:27:30.000Z</time>
      </trkpt>
      <trkpt lat="45.11313" lon="5.81652">
        <ele>406.48</ele>
        <time>2020-10-11T10:27:35.000Z</time>
      </trkpt>
      <trkpt lat="45.11336" lon="5.81625">
        <ele>402.41</ele>
        <time>2020-10-11T10:27:40.000Z</time>
      </trkpt>
      <trkpt lat="45.11362" lon="5.81592">
        <ele>395.36</ele>
        <time>2020-10-11T10:27:45.000Z</time>
      </trkpt>
      <trkpt lat="45.11385" lon="5.81553">
        <ele>390.15</ele>
        <time>2020-10-11T10:27:50.000Z</time>
      </trkpt>
      <trkpt lat="45.11402" lon="5.81517">
        <ele>387.08</ele>
        <time>2020-10-11T10:27:55.000Z</time>
      </trkpt>
      <trkpt lat="45.11419" lon="5.81476">
        <ele>386.24</ele>
        <time>2020-10-11T10:28:00.000Z</time>
      </trkpt>
      <trkpt lat="45.1144" lon="5.81442">
        <ele>382.79</ele>
        <time>2020-10-11T10:28:05.000Z</time>
      </trkpt>
      <trkpt lat="45.11455" lon="5.81434">
        <ele>380.31</ele>
        <time>2020-10-11T10:28:10.000Z</time>
      </trkpt>
      <trkpt lat="45.11467" lon="5.81418">
        <ele>380.79</ele>
        <time>2020-10-11T10:28:15.000Z</time>
      </trkpt>
      <trkpt lat="45.11487" lon="5.81395">
        <ele>378.55</ele>
        <time>2020-10-11T10:28:20.000Z</time>
      </trkpt>
      <trkpt lat="45.11511" lon="5.81364">
        <ele>375.42</ele>
        <time>2020-10-11T10:28:25.000Z</time>
      </trkpt>
      <trkpt lat="45.11534" lon="5.81333">
        <ele>372.19</ele>
        <time>2020-10-11T10:28:30.000Z</time>
      </trkpt>
      <trkpt lat="45.11556" lon="5.81292">
        <ele>367.67</ele>
        <time>2020-10-11T10:28:35.000Z</time>
      </trkpt>
      <trkpt lat="45.11576" lon="5.81249">
        <ele>365.69</ele>
        <time>2020-10-11T10:28:40.000Z</time>
      </trkpt>
      <trkpt lat="45.11601" lon="5.81213">
        <ele>363.01</ele>
        <time>2020-10-11T10:28:45.000Z</time>
      </trkpt>
      <trkpt lat="45.11632" lon="5.81188">
        <ele>357.6</ele>
        <time>2020-10-11T10:28:50.000Z</time>
      </trkpt>
      <trkpt lat="45.11661" lon="5.81166">
        <ele>354.23</ele>
        <time>2020-10-11T10:28:55.000Z</time>
      </trkpt>
      <trkpt lat="45.11677" lon="5.81154">
        <ele>351.74</ele>
        <time>2020-10-11T10:29:00.000Z</time>
      </trkpt>
      <trkpt lat="45.11687" lon="5.81144">
        <ele>352.65</ele>
        <time>2020-10-11T10:29:05.000Z</time>
      </trkpt>
      <trkpt lat="45.11694" lon="5.81128">
        <ele>355.1</ele>
        <time>2020-10-11T10:29:10.000Z</time>
      </trkpt>
      <trkpt lat="45.11706" lon="5.81109">
        <ele>349.29</ele>
        <time>2020-10-11T10:29:15.000Z</time>
      </trkpt>
      <trkpt lat="45.11722" lon="5.81099">
        <ele>348.43</ele>
        <time>2020-10-11T10:29:20.000Z</time>
      </trkpt>
      <trkpt lat="45.11742" lon="5.81086">
        <ele>348.31</ele>
        <time>2020-10-11T10:29:25.000Z</time>
      </trkpt>
      <trkpt lat="45.11756" lon="5.81066">
        <ele>348.85</ele>
        <time>2020-10-11T10:29:30.000Z</time>
      </trkpt>
      <trkpt lat="45.11771" lon="5.81057">
        <ele>350.27</ele>
        <time>2020-10-11T10:29:35.000Z</time>
      </trkpt>
      <trkpt lat="45.11786" lon="5.81064">
        <ele>350.84</ele>
        <time>2020-10-11T10:29:40.000Z</time>
      </trkpt>
      <trkpt lat="45.11808" lon="5.81068">
        <ele>353.07</ele>
        <time>2020-10-11T10:29:45.000Z</time>
      </trkpt>
      <trkpt lat="45.11827" lon="5.81076">
        <ele>355.66</ele>
        <time>2020-10-11T10:29:50.000Z</time>
      </trkpt>
      <trkpt lat="45.11845" lon="5.81081">
        <ele>357.04</ele>
        <time>2020-10-11T10:29:55.000Z</time>
      </trkpt>
      <trkpt lat="45.11865" lon="5.8108">
        <ele>355.91</ele>
        <time>2020-10-11T10:30:00.000Z</time>
      </trkpt>
      <trkpt lat="45.11889" lon="5.81081">
        <ele>355.44</ele>
        <time>2020-10-11T10:30:05.000Z</time>
      </trkpt>
      <trkpt lat="45.11911" lon="5.81089">
        <ele>360.03</ele>
        <time>2020-10-11T10:30:10.000Z</time>
      </trkpt>
      <trkpt lat="45.1193" lon="5.81103">
        <ele>361.46</ele>
        <time>2020-10-11T10:30:15.000Z</time>
      </trkpt>
      <trkpt lat="45.11951" lon="5.81122">
        <ele>358.14</ele>
        <time>2020-10-11T10:30:20.000Z</time>
      </trkpt>
      <trkpt lat="45.1197" lon="5.81142">
        <ele>358.03</ele>
        <time>2020-10-11T10:30:25.000Z</time>
      </trkpt>
      <trkpt lat="45.1199" lon="5.81161">
        <ele>359.68</ele>
        <time>2020-10-11T10:30:30.000Z</time>
      </trkpt>
      <trkpt lat="45.12001" lon="5.81176">
        <ele>362.39</ele>
        <time>2020-10-11T10:30:35.000Z</time>
      </trkpt>
      <trkpt lat="45.12009" lon="5.81167">
        <ele>361</ele>
        <time>2020-10-11T10:31:09.000Z</time>
      </trkpt>
      <trkpt lat="45.12018" lon="5.81167">
        <ele>360.84</ele>
        <time>2020-10-11T10:31:14.000Z</time>
      </trkpt>
      <trkpt lat="45.12028" lon="5.81166">
        <ele>361.57</ele>
        <time>2020-10-11T10:31:19.000Z</time>
      </trkpt>
      <trkpt lat="45.12038" lon="5.81159">
        <ele>362.63</ele>
        <time>2020-10-11T10:31:24.000Z</time>
      </trkpt>
      <trkpt lat="45.12059" lon="5.81158">
        <ele>363.87</ele>
        <time>2020-10-11T10:31:29.000Z</time>
      </trkpt>
      <trkpt lat="45.12082" lon="5.81156">
        <ele>364.16</ele>
        <time>2020-10-11T10:31:34.000Z</time>
      </trkpt>
      <trkpt lat="45.121" lon="5.81151">
        <ele>367.68</ele>
        <time>2020-10-11T10:31:39.000Z</time>
      </trkpt>
      <trkpt lat="45.12118" lon="5.81144">
        <ele>370.28</ele>
        <time>2020-10-11T10:31:44.000Z</time>
      </trkpt>
      <trkpt lat="45.12129" lon="5.81139">
        <ele>372.09</ele>
        <time>2020-10-11T10:31:49.000Z</time>
      </trkpt>
      <trkpt lat="45.12141" lon="5.81153">
        <ele>373.6</ele>
        <time>2020-10-11T10:31:54.000Z</time>
      </trkpt>
      <trkpt lat="45.12155" lon="5.81166">
        <ele>374.36</ele>
        <time>2020-10-11T10:31:59.000Z</time>
      </trkpt>
      <trkpt lat="45.12171" lon="5.81178">
        <ele>378.76</ele>
        <time>2020-10-11T10:32:04.000Z</time>
      </trkpt>
      <trkpt lat="45.12186" lon="5.8119">
        <ele>381.64</ele>
        <time>2020-10-11T10:32:09.000Z</time>
      </trkpt>
      <trkpt lat="45.12203" lon="5.81196">
        <ele>379.94</ele>
        <time>2020-10-11T10:32:14.000Z</time>
      </trkpt>
      <trkpt lat="45.12221" lon="5.812">
        <ele>379.37</ele>
        <time>2020-10-11T10:32:19.000Z</time>
      </trkpt>
      <trkpt lat="45.12237" lon="5.81206">
        <ele>380.22</ele>
        <time>2020-10-11T10:32:24.000Z</time>
      </trkpt>
      <trkpt lat="45.12255" lon="5.81215">
        <ele>380.04</ele>
        <time>2020-10-11T10:32:29.000Z</time>
      </trkpt>
      <trkpt lat="45.12272" lon="5.81229">
        <ele>378.57</ele>
        <time>2020-10-11T10:32:34.000Z</time>
      </trkpt>
      <trkpt lat="45.12286" lon="5.8124">
        <ele>380.97</ele>
        <time>2020-10-11T10:32:39.000Z</time>
      </trkpt>
      <trkpt lat="45.12302" lon="5.81249">
        <ele>381.71</ele>
        <time>2020-10-11T10:32:44.000Z</time>
      </trkpt>
      <trkpt lat="45.1232" lon="5.81259">
        <ele>381.37</ele>
        <time>2020-10-11T10:32:49.000Z</time>
      </trkpt>
      <trkpt lat="45.12341" lon="5.81254">
        <ele>382.17</ele>
        <time>2020-10-11T10:32:54.000Z</time>
      </trkpt>
      <trkpt lat="45.12364" lon="5.81262">
        <ele>379.25</ele>
        <time>2020-10-11T10:32:59.000Z</time>
      </trkpt>
      <trkpt lat="45.12387" lon="5.81279">
        <ele>377.66</ele>
        <time>2020-10-11T10:33:04.000Z</time>
      </trkpt>
      <trkpt lat="45.12405" lon="5.8129">
        <ele>377.9</ele>
        <time>2020-10-11T10:33:09.000Z</time>
      </trkpt>
      <trkpt lat="45.12427" lon="5.81303">
        <ele>380.07</ele>
        <time>2020-10-11T10:33:14.000Z</time>
      </trkpt>
      <trkpt lat="45.12448" lon="5.8132">
        <ele>381.96</ele>
        <time>2020-10-11T10:33:19.000Z</time>
      </trkpt>
      <trkpt lat="45.12467" lon="5.81334">
        <ele>382.36</ele>
        <time>2020-10-11T10:33:24.000Z</time>
      </trkpt>
      <trkpt lat="45.12486" lon="5.81351">
        <ele>380.08</ele>
        <time>2020-10-11T10:33:29.000Z</time>
      </trkpt>
      <trkpt lat="45.12508" lon="5.81366">
        <ele>386.2</ele>
        <time>2020-10-11T10:33:34.000Z</time>
      </trkpt>
      <trkpt lat="45.12523" lon="5.81375">
        <ele>390.59</ele>
        <time>2020-10-11T10:33:39.000Z</time>
      </trkpt>
      <trkpt lat="45.12544" lon="5.81398">
        <ele>390.73</ele>
        <time>2020-10-11T10:33:44.000Z</time>
      </trkpt>
      <trkpt lat="45.12563" lon="5.81411">
        <ele>390.99</ele>
        <time>2020-10-11T10:33:49.000Z</time>
      </trkpt>
      <trkpt lat="45.1258" lon="5.81415">
        <ele>390.61</ele>
        <time>2020-10-11T10:33:54.000Z</time>
      </trkpt>
      <trkpt lat="45.12598" lon="5.8143">
        <ele>388.5</ele>
        <time>2020-10-11T10:33:59.000Z</time>
      </trkpt>
      <trkpt lat="45.12614" lon="5.81447">
        <ele>388.37</ele>
        <time>2020-10-11T10:34:04.000Z</time>
      </trkpt>
      <trkpt lat="45.12626" lon="5.81466">
        <ele>392.66</ele>
        <time>2020-10-11T10:34:09.000Z</time>
      </trkpt>
      <trkpt lat="45.12639" lon="5.81486">
        <ele>393.44</ele>
        <time>2020-10-11T10:34:14.000Z</time>
      </trkpt>
      <trkpt lat="45.12657" lon="5.81504">
        <ele>395.81</ele>
        <time>2020-10-11T10:34:19.000Z</time>
      </trkpt>
      <trkpt lat="45.12668" lon="5.81519">
        <ele>399.46</ele>
        <time>2020-10-11T10:34:24.000Z</time>
      </trkpt>
      <trkpt lat="45.12676" lon="5.81543">
        <ele>397.33</ele>
        <time>2020-10-11T10:34:29.000Z</time>
      </trkpt>
      <trkpt lat="45.12691" lon="5.8158">
        <ele>395.69</ele>
        <time>2020-10-11T10:34:34.000Z</time>
      </trkpt>
      <trkpt lat="45.12698" lon="5.81606">
        <ele>394.54</ele>
        <time>2020-10-11T10:34:39.000Z</time>
      </trkpt>
      <trkpt lat="45.12698" lon="5.81625">
        <ele>396.36</ele>
        <time>2020-10-11T10:34:44.000Z</time>
      </trkpt>
      <trkpt lat="45.12694" lon="5.81642">
        <ele>396.49</ele>
        <time>2020-10-11T10:34:49.000Z</time>
      </trkpt>
      <trkpt lat="45.12693" lon="5.81654">
        <ele>392.56</ele>
        <time>2020-10-11T10:34:55.000Z</time>
      </trkpt>
      <trkpt lat="45.12692" lon="5.81677">
        <ele>392.89</ele>
        <time>2020-10-11T10:35:00.000Z</time>
      </trkpt>
      <trkpt lat="45.12697" lon="5.81703">
        <ele>391.91</ele>
        <time>2020-10-11T10:35:05.000Z</time>
      </trkpt>
      <trkpt lat="45.12706" lon="5.81734">
        <ele>390.17</ele>
        <time>2020-10-11T10:35:10.000Z</time>
      </trkpt>
      <trkpt lat="45.12707" lon="5.81759">
        <ele>392.02</ele>
        <time>2020-10-11T10:35:15.000Z</time>
      </trkpt>
      <trkpt lat="45.12702" lon="5.81779">
        <ele>393.75</ele>
        <time>2020-10-11T10:35:20.000Z</time>
      </trkpt>
      <trkpt lat="45.12701" lon="5.81803">
        <ele>392.04</ele>
        <time>2020-10-11T10:35:25.000Z</time>
      </trkpt>
      <trkpt lat="45.12704" lon="5.81825">
        <ele>392.55</ele>
        <time>2020-10-11T10:35:30.000Z</time>
      </trkpt>
      <trkpt lat="45.12717" lon="5.81842">
        <ele>394.01</ele>
        <time>2020-10-11T10:35:35.000Z</time>
      </trkpt>
      <trkpt lat="45.12733" lon="5.81851">
        <ele>394.6</ele>
        <time>2020-10-11T10:35:40.000Z</time>
      </trkpt>
      <trkpt lat="45.12748" lon="5.81866">
        <ele>398.94</ele>
        <time>2020-10-11T10:35:45.000Z</time>
      </trkpt>
      <trkpt lat="45.12756" lon="5.81895">
        <ele>399.51</ele>
        <time>2020-10-11T10:35:50.000Z</time>
      </trkpt>
      <trkpt lat="45.12762" lon="5.81923">
        <ele>402.62</ele>
        <time>2020-10-11T10:35:55.000Z</time>
      </trkpt>
      <trkpt lat="45.12769" lon="5.81945">
        <ele>403.11</ele>
        <time>2020-10-11T10:36:00.000Z</time>
      </trkpt>
      <trkpt lat="45.12775" lon="5.81968">
        <ele>404.06</ele>
        <time>2020-10-11T10:36:05.000Z</time>
      </trkpt>
      <trkpt lat="45.12783" lon="5.81988">
        <ele>404.66</ele>
        <time>2020-10-11T10:36:10.000Z</time>
      </trkpt>
      <trkpt lat="45.12789" lon="5.82012">
        <ele>404.69</ele>
        <time>2020-10-11T10:36:15.000Z</time>
      </trkpt>
      <trkpt lat="45.12797" lon="5.82038">
        <ele>402.61</ele>
        <time>2020-10-11T10:36:20.000Z</time>
      </trkpt>
      <trkpt lat="45.12801" lon="5.82065">
        <ele>402.64</ele>
        <time>2020-10-11T10:36:25.000Z</time>
      </trkpt>
      <trkpt lat="45.12802" lon="5.82095">
        <ele>402.3</ele>
        <time>2020-10-11T10:36:30.000Z</time>
      </trkpt>
      <trkpt lat="45.12801" lon="5.82133">
        <ele>405.86</ele>
        <time>2020-10-11T10:36:35.000Z</time>
      </trkpt>
      <trkpt lat="45.12804" lon="5.82162">
        <ele>412.19</ele>
        <time>2020-10-11T10:36:40.000Z</time>
      </trkpt>
      <trkpt lat="45.12813" lon="5.82183">
        <ele>414.65</ele>
        <time>2020-10-11T10:36:45.000Z</time>
      </trkpt>
      <trkpt lat="45.12823" lon="5.82203">
        <ele>416.91</ele>
        <time>2020-10-11T10:36:50.000Z</time>
      </trkpt>
      <trkpt lat="45.12836" lon="5.82225">
        <ele>419.97</ele>
        <time>2020-10-11T10:36:55.000Z</time>
      </trkpt>
      <trkpt lat="45.12849" lon="5.82242">
        <ele>418.7</ele>
        <time>2020-10-11T10:37:00.000Z</time>
      </trkpt>
      <trkpt lat="45.12862" lon="5.82263">
        <ele>422.06</ele>
        <time>2020-10-11T10:37:05.000Z</time>
      </trkpt>
      <trkpt lat="45.12879" lon="5.82286">
        <ele>422.25</ele>
        <time>2020-10-11T10:37:10.000Z</time>
      </trkpt>
      <trkpt lat="45.12894" lon="5.82305">
        <ele>425.58</ele>
        <time>2020-10-11T10:37:15.000Z</time>
      </trkpt>
      <trkpt lat="45.12906" lon="5.8232">
        <ele>428.04</ele>
        <time>2020-10-11T10:37:20.000Z</time>
      </trkpt>
      <trkpt lat="45.12912" lon="5.82339">
        <ele>430.37</ele>
        <time>2020-10-11T10:37:25.000Z</time>
      </trkpt>
      <trkpt lat="45.12913" lon="5.82353">
        <ele>432.42</ele>
        <time>2020-10-11T10:37:31.000Z</time>
      </trkpt>
      <trkpt lat="45.12919" lon="5.82366">
        <ele>430.91</ele>
        <time>2020-10-11T10:37:38.000Z</time>
      </trkpt>
      <trkpt lat="45.12915" lon="5.82384">
        <ele>434.06</ele>
        <time>2020-10-11T10:37:43.000Z</time>
      </trkpt>
      <trkpt lat="45.12909" lon="5.82406">
        <ele>434.09</ele>
        <time>2020-10-11T10:37:48.000Z</time>
      </trkpt>
      <trkpt lat="45.12912" lon="5.82428">
        <ele>435.3</ele>
        <time>2020-10-11T10:37:53.000Z</time>
      </trkpt>
      <trkpt lat="45.1292" lon="5.82449">
        <ele>439.78</ele>
        <time>2020-10-11T10:37:58.000Z</time>
      </trkpt>
      <trkpt lat="45.12931" lon="5.82467">
        <ele>444.56</ele>
        <time>2020-10-11T10:38:03.000Z</time>
      </trkpt>
      <trkpt lat="45.12943" lon="5.82485">
        <ele>443.09</ele>
        <time>2020-10-11T10:38:08.000Z</time>
      </trkpt>
      <trkpt lat="45.12954" lon="5.82498">
        <ele>443.14</ele>
        <time>2020-10-11T10:38:13.000Z</time>
      </trkpt>
      <trkpt lat="45.12963" lon="5.82504">
        <ele>443.29</ele>
        <time>2020-10-11T10:38:18.000Z</time>
      </trkpt>
      <trkpt lat="45.12974" lon="5.82507">
        <ele>443.68</ele>
        <time>2020-10-11T10:38:24.000Z</time>
      </trkpt>
      <trkpt lat="45.12984" lon="5.82513">
        <ele>444.2</ele>
        <time>2020-10-11T10:38:29.000Z</time>
      </trkpt>
      <trkpt lat="45.13" lon="5.82515">
        <ele>444.27</ele>
        <time>2020-10-11T10:38:34.000Z</time>
      </trkpt>
      <trkpt lat="45.13022" lon="5.82503">
        <ele>445.07</ele>
        <time>2020-10-11T10:38:39.000Z</time>
      </trkpt>
      <trkpt lat="45.13047" lon="5.82498">
        <ele>442.77</ele>
        <time>2020-10-11T10:38:44.000Z</time>
      </trkpt>
      <trkpt lat="45.13076" lon="5.82496">
        <ele>440.51</ele>
        <time>2020-10-11T10:38:49.000Z</time>
      </trkpt>
      <trkpt lat="45.13103" lon="5.82508">
        <ele>440.79</ele>
        <time>2020-10-11T10:38:54.000Z</time>
      </trkpt>
      <trkpt lat="45.13115" lon="5.82522">
        <ele>445.91</ele>
        <time>2020-10-11T10:38:59.000Z</time>
      </trkpt>
      <trkpt lat="45.13124" lon="5.82528">
        <ele>447.72</ele>
        <time>2020-10-11T10:39:06.000Z</time>
      </trkpt>
      <trkpt lat="45.13131" lon="5.82543">
        <ele>446.9</ele>
        <time>2020-10-11T10:39:11.000Z</time>
      </trkpt>
      <trkpt lat="45.1314" lon="5.82562">
        <ele>446.37</ele>
        <time>2020-10-11T10:39:16.000Z</time>
      </trkpt>
      <trkpt lat="45.13149" lon="5.8258">
        <ele>444.54</ele>
        <time>2020-10-11T10:39:21.000Z</time>
      </trkpt>
      <trkpt lat="45.13154" lon="5.82601">
        <ele>445.62</ele>
        <time>2020-10-11T10:39:26.000Z</time>
      </trkpt>
      <trkpt lat="45.13162" lon="5.8262">
        <ele>445.2</ele>
        <time>2020-10-11T10:39:31.000Z</time>
      </trkpt>
      <trkpt lat="45.13174" lon="5.82635">
        <ele>446.87</ele>
        <time>2020-10-11T10:39:36.000Z</time>
      </trkpt>
      <trkpt lat="45.13185" lon="5.82645">
        <ele>446.55</ele>
        <time>2020-10-11T10:39:41.000Z</time>
      </trkpt>
      <trkpt lat="45.13195" lon="5.82654">
        <ele>446.84</ele>
        <time>2020-10-11T10:39:46.000Z</time>
      </trkpt>
      <trkpt lat="45.13212" lon="5.82674">
        <ele>444.94</ele>
        <time>2020-10-11T10:39:51.000Z</time>
      </trkpt>
      <trkpt lat="45.13229" lon="5.82697">
        <ele>443.72</ele>
        <time>2020-10-11T10:39:56.000Z</time>
      </trkpt>
      <trkpt lat="45.13247" lon="5.82712">
        <ele>444.57</ele>
        <time>2020-10-11T10:40:01.000Z</time>
      </trkpt>
      <trkpt lat="45.13258" lon="5.82714">
        <ele>444.92</ele>
        <time>2020-10-11T10:40:06.000Z</time>
      </trkpt>
      <trkpt lat="45.13268" lon="5.82707">
        <ele>444.43</ele>
        <time>2020-10-11T10:40:11.000Z</time>
      </trkpt>
      <trkpt lat="45.13288" lon="5.82696">
        <ele>448.36</ele>
        <time>2020-10-11T10:40:16.000Z</time>
      </trkpt>
      <trkpt lat="45.13315" lon="5.82686">
        <ele>443.8</ele>
        <time>2020-10-11T10:40:21.000Z</time>
      </trkpt>
      <trkpt lat="45.1334" lon="5.82662">
        <ele>443.84</ele>
        <time>2020-10-11T10:40:26.000Z</time>
      </trkpt>
      <trkpt lat="45.13361" lon="5.82644">
        <ele>441.01</ele>
        <time>2020-10-11T10:40:31.000Z</time>
      </trkpt>
      <trkpt lat="45.13373" lon="5.82633">
        <ele>439.97</ele>
        <time>2020-10-11T10:40:36.000Z</time>
      </trkpt>
      <trkpt lat="45.1339" lon="5.82614">
        <ele>438.5</ele>
        <time>2020-10-11T10:40:41.000Z</time>
      </trkpt>
      <trkpt lat="45.1341" lon="5.82604">
        <ele>437.13</ele>
        <time>2020-10-11T10:40:46.000Z</time>
      </trkpt>
      <trkpt lat="45.13432" lon="5.82597">
        <ele>432.46</ele>
        <time>2020-10-11T10:40:51.000Z</time>
      </trkpt>
      <trkpt lat="45.13455" lon="5.82583">
        <ele>433.01</ele>
        <time>2020-10-11T10:40:56.000Z</time>
      </trkpt>
      <trkpt lat="45.13482" lon="5.82573">
        <ele>431.1</ele>
        <time>2020-10-11T10:41:01.000Z</time>
      </trkpt>
      <trkpt lat="45.13491" lon="5.82564">
        <ele>434.16</ele>
        <time>2020-10-11T10:41:06.000Z</time>
      </trkpt>
      <trkpt lat="45.13509" lon="5.82554">
        <ele>436.4</ele>
        <time>2020-10-11T10:41:11.000Z</time>
      </trkpt>
      <trkpt lat="45.13525" lon="5.82543">
        <ele>431.27</ele>
        <time>2020-10-11T10:41:16.000Z</time>
      </trkpt>
      <trkpt lat="45.13543" lon="5.8253">
        <ele>430.05</ele>
        <time>2020-10-11T10:41:21.000Z</time>
      </trkpt>
      <trkpt lat="45.13559" lon="5.8251">
        <ele>426.63</ele>
        <time>2020-10-11T10:41:26.000Z</time>
      </trkpt>
      <trkpt lat="45.13574" lon="5.82493">
        <ele>426.78</ele>
        <time>2020-10-11T10:41:31.000Z</time>
      </trkpt>
      <trkpt lat="45.13589" lon="5.82495">
        <ele>424.45</ele>
        <time>2020-10-11T10:41:36.000Z</time>
      </trkpt>
      <trkpt lat="45.136" lon="5.82507">
        <ele>421.22</ele>
        <time>2020-10-11T10:41:41.000Z</time>
      </trkpt>
      <trkpt lat="45.13614" lon="5.82523">
        <ele>415.56</ele>
        <time>2020-10-11T10:41:46.000Z</time>
      </trkpt>
      <trkpt lat="45.13627" lon="5.82541">
        <ele>417.76</ele>
        <time>2020-10-11T10:41:51.000Z</time>
      </trkpt>
      <trkpt lat="45.13638" lon="5.82554">
        <ele>414.76</ele>
        <time>2020-10-11T10:41:56.000Z</time>
      </trkpt>
      <trkpt lat="45.1365" lon="5.82562">
        <ele>413.59</ele>
        <time>2020-10-11T10:42:01.000Z</time>
      </trkpt>
      <trkpt lat="45.13659" lon="5.82571">
        <ele>411.31</ele>
        <time>2020-10-11T10:42:06.000Z</time>
      </trkpt>
      <trkpt lat="45.13667" lon="5.8258">
        <ele>412.58</ele>
        <time>2020-10-11T10:42:11.000Z</time>
      </trkpt>
      <trkpt lat="45.13677" lon="5.82592">
        <ele>412.25</ele>
        <time>2020-10-11T10:42:16.000Z</time>
      </trkpt>
      <trkpt lat="45.13688" lon="5.82604">
        <ele>407.91</ele>
        <time>2020-10-11T10:42:21.000Z</time>
      </trkpt>
      <trkpt lat="45.13696" lon="5.82617">
        <ele>407.8</ele>
        <time>2020-10-11T10:42:26.000Z</time>
      </trkpt>
      <trkpt lat="45.13708" lon="5.82632">
        <ele>408.12</ele>
        <time>2020-10-11T10:42:31.000Z</time>
      </trkpt>
      <trkpt lat="45.13723" lon="5.8265">
        <ele>406.37</ele>
        <time>2020-10-11T10:42:36.000Z</time>
      </trkpt>
      <trkpt lat="45.13739" lon="5.82668">
        <ele>407.64</ele>
        <time>2020-10-11T10:42:41.000Z</time>
      </trkpt>
      <trkpt lat="45.13754" lon="5.82674">
        <ele>407.01</ele>
        <time>2020-10-11T10:42:46.000Z</time>
      </trkpt>
      <trkpt lat="45.13768" lon="5.82656">
        <ele>401.24</ele>
        <time>2020-10-11T10:42:51.000Z</time>
      </trkpt>
      <trkpt lat="45.1378" lon="5.82632">
        <ele>401.18</ele>
        <time>2020-10-11T10:42:56.000Z</time>
      </trkpt>
      <trkpt lat="45.1379" lon="5.82621">
        <ele>401.45</ele>
        <time>2020-10-11T10:43:01.000Z</time>
      </trkpt>
      <trkpt lat="45.13803" lon="5.82625">
        <ele>405.97</ele>
        <time>2020-10-11T10:43:06.000Z</time>
      </trkpt>
      <trkpt lat="45.13816" lon="5.82636">
        <ele>406.69</ele>
        <time>2020-10-11T10:43:11.000Z</time>
      </trkpt>
      <trkpt lat="45.13833" lon="5.82653">
        <ele>405.61</ele>
        <time>2020-10-11T10:43:16.000Z</time>
      </trkpt>
      <trkpt lat="45.13852" lon="5.82665">
        <ele>404.61</ele>
        <time>2020-10-11T10:43:21.000Z</time>
      </trkpt>
      <trkpt lat="45.13863" lon="5.82675">
        <ele>403.69</ele>
        <time>2020-10-11T10:43:26.000Z</time>
      </trkpt>
      <trkpt lat="45.13873" lon="5.82689">
        <ele>404.06</ele>
        <time>2020-10-11T10:43:31.000Z</time>
      </trkpt>
      <trkpt lat="45.1389" lon="5.82703">
        <ele>407.92</ele>
        <time>2020-10-11T10:43:36.000Z</time>
      </trkpt>
      <trkpt lat="45.13905" lon="5.82717">
        <ele>410.14</ele>
        <time>2020-10-11T10:43:41.000Z</time>
      </trkpt>
      <trkpt lat="45.13917" lon="5.82729">
        <ele>412.03</ele>
        <time>2020-10-11T10:43:46.000Z</time>
      </trkpt>
      <trkpt lat="45.13931" lon="5.82744">
        <ele>411.86</ele>
        <time>2020-10-11T10:43:51.000Z</time>
      </trkpt>
      <trkpt lat="45.13936" lon="5.82758">
        <ele>415.85</ele>
        <time>2020-10-11T10:43:56.000Z</time>
      </trkpt>
      <trkpt lat="45.1394" lon="5.82774">
        <ele>418.76</ele>
        <time>2020-10-11T10:44:01.000Z</time>
      </trkpt>
      <trkpt lat="45.1395" lon="5.82783">
        <ele>415.54</ele>
        <time>2020-10-11T10:44:06.000Z</time>
      </trkpt>
      <trkpt lat="45.13967" lon="5.82782">
        <ele>413.04</ele>
        <time>2020-10-11T10:44:11.000Z</time>
      </trkpt>
      <trkpt lat="45.13989" lon="5.82786">
        <ele>411.56</ele>
        <time>2020-10-11T10:44:16.000Z</time>
      </trkpt>
      <trkpt lat="45.1401" lon="5.82807">
        <ele>413.69</ele>
        <time>2020-10-11T10:44:21.000Z</time>
      </trkpt>
      <trkpt lat="45.14027" lon="5.82828">
        <ele>414.88</ele>
        <time>2020-10-11T10:44:26.000Z</time>
      </trkpt>
      <trkpt lat="45.14048" lon="5.82845">
        <ele>414.28</ele>
        <time>2020-10-11T10:44:31.000Z</time>
      </trkpt>
      <trkpt lat="45.14069" lon="5.82861">
        <ele>410.86</ele>
        <time>2020-10-11T10:44:36.000Z</time>
      </trkpt>
      <trkpt lat="45.14092" lon="5.82871">
        <ele>414.26</ele>
        <time>2020-10-11T10:44:41.000Z</time>
      </trkpt>
      <trkpt lat="45.14112" lon="5.82881">
        <ele>414.74</ele>
        <time>2020-10-11T10:44:46.000Z</time>
      </trkpt>
      <trkpt lat="45.14132" lon="5.8289">
        <ele>414.13</ele>
        <time>2020-10-11T10:44:51.000Z</time>
      </trkpt>
      <trkpt lat="45.14153" lon="5.82898">
        <ele>415.6</ele>
        <time>2020-10-11T10:44:56.000Z</time>
      </trkpt>
      <trkpt lat="45.14168" lon="5.82903">
        <ele>417.53</ele>
        <time>2020-10-11T10:45:01.000Z</time>
      </trkpt>
      <trkpt lat="45.14185" lon="5.82911">
        <ele>416.43</ele>
        <time>2020-10-11T10:45:06.000Z</time>
      </trkpt>
      <trkpt lat="45.14209" lon="5.82919">
        <ele>414.18</ele>
        <time>2020-10-11T10:45:11.000Z</time>
      </trkpt>
      <trkpt lat="45.1422" lon="5.82912">
        <ele>412.21</ele>
        <time>2020-10-11T10:45:16.000Z</time>
      </trkpt>
      <trkpt lat="45.1421" lon="5.82904">
        <ele>410.43</ele>
        <time>2020-10-11T10:45:22.000Z</time>
      </trkpt>
      <trkpt lat="45.14194" lon="5.82891">
        <ele>410.82</ele>
        <time>2020-10-11T10:45:27.000Z</time>
      </trkpt>
      <trkpt lat="45.14175" lon="5.82882">
        <ele>412.94</ele>
        <time>2020-10-11T10:45:32.000Z</time>
      </trkpt>
      <trkpt lat="45.14154" lon="5.82879">
        <ele>417.15</ele>
        <time>2020-10-11T10:45:37.000Z</time>
      </trkpt>
      <trkpt lat="45.14143" lon="5.82877">
        <ele>416.48</ele>
        <time>2020-10-11T10:45:42.000Z</time>
      </trkpt>
      <trkpt lat="45.14136" lon="5.82867">
        <ele>414.36</ele>
        <time>2020-10-11T10:45:51.000Z</time>
      </trkpt>
      <trkpt lat="45.14134" lon="5.8288">
        <ele>416.96</ele>
        <time>2020-10-11T10:47:18.000Z</time>
      </trkpt>
      <trkpt lat="45.14142" lon="5.82888">
        <ele>409.63</ele>
        <time>2020-10-11T10:48:03.000Z</time>
      </trkpt>
      <trkpt lat="45.14152" lon="5.82894">
        <ele>413.62</ele>
        <time>2020-10-11T10:48:08.000Z</time>
      </trkpt>
      <trkpt lat="45.1416" lon="5.82901">
        <ele>413.88</ele>
        <time>2020-10-11T10:48:15.000Z</time>
      </trkpt>
      <trkpt lat="45.14169" lon="5.82897">
        <ele>414.44</ele>
        <time>2020-10-11T10:48:55.000Z</time>
      </trkpt>
      <trkpt lat="45.14196" lon="5.8291">
        <ele>413.89</ele>
        <time>2020-10-11T10:49:00.000Z</time>
      </trkpt>
      <trkpt lat="45.14221" lon="5.82911">
        <ele>411.93</ele>
        <time>2020-10-11T10:49:05.000Z</time>
      </trkpt>
      <trkpt lat="45.14241" lon="5.8292">
        <ele>412.25</ele>
        <time>2020-10-11T10:49:10.000Z</time>
      </trkpt>
      <trkpt lat="45.1426" lon="5.8293">
        <ele>413.55</ele>
        <time>2020-10-11T10:49:15.000Z</time>
      </trkpt>
      <trkpt lat="45.14281" lon="5.82941">
        <ele>413.19</ele>
        <time>2020-10-11T10:49:20.000Z</time>
      </trkpt>
      <trkpt lat="45.14299" lon="5.82951">
        <ele>415</ele>
        <time>2020-10-11T10:49:25.000Z</time>
      </trkpt>
      <trkpt lat="45.1432" lon="5.82961">
        <ele>411.73</ele>
        <time>2020-10-11T10:49:30.000Z</time>
      </trkpt>
      <trkpt lat="45.14337" lon="5.82971">
        <ele>411.16</ele>
        <time>2020-10-11T10:49:35.000Z</time>
      </trkpt>
      <trkpt lat="45.1435" lon="5.82979">
        <ele>411.43</ele>
        <time>2020-10-11T10:49:40.000Z</time>
      </trkpt>
      <trkpt lat="45.14369" lon="5.8297">
        <ele>411.32</ele>
        <time>2020-10-11T10:49:45.000Z</time>
      </trkpt>
      <trkpt lat="45.14396" lon="5.82955">
        <ele>409.51</ele>
        <time>2020-10-11T10:49:50.000Z</time>
      </trkpt>
      <trkpt lat="45.14418" lon="5.82945">
        <ele>405.69</ele>
        <time>2020-10-11T10:49:55.000Z</time>
      </trkpt>
      <trkpt lat="45.14445" lon="5.82932">
        <ele>403.68</ele>
        <time>2020-10-11T10:50:00.000Z</time>
      </trkpt>
      <trkpt lat="45.14468" lon="5.82921">
        <ele>401.34</ele>
        <time>2020-10-11T10:50:05.000Z</time>
      </trkpt>
      <trkpt lat="45.14493" lon="5.82908">
        <ele>402.67</ele>
        <time>2020-10-11T10:50:10.000Z</time>
      </trkpt>
      <trkpt lat="45.14518" lon="5.82893">
        <ele>399.99</ele>
        <time>2020-10-11T10:50:15.000Z</time>
      </trkpt>
      <trkpt lat="45.14538" lon="5.82873">
        <ele>398.87</ele>
        <time>2020-10-11T10:50:20.000Z</time>
      </trkpt>
      <trkpt lat="45.14568" lon="5.82864">
        <ele>399.31</ele>
        <time>2020-10-11T10:50:25.000Z</time>
      </trkpt>
      <trkpt lat="45.14596" lon="5.82862">
        <ele>400.74</ele>
        <time>2020-10-11T10:50:30.000Z</time>
      </trkpt>
      <trkpt lat="45.14626" lon="5.82856">
        <ele>399.56</ele>
        <time>2020-10-11T10:50:35.000Z</time>
      </trkpt>
      <trkpt lat="45.14653" lon="5.82861">
        <ele>397.93</ele>
        <time>2020-10-11T10:50:40.000Z</time>
      </trkpt>
      <trkpt lat="45.14681" lon="5.82859">
        <ele>395.87</ele>
        <time>2020-10-11T10:50:45.000Z</time>
      </trkpt>
      <trkpt lat="45.14709" lon="5.8285">
        <ele>396.25</ele>
        <time>2020-10-11T10:50:50.000Z</time>
      </trkpt>
      <trkpt lat="45.14735" lon="5.82841">
        <ele>394.22</ele>
        <time>2020-10-11T10:50:55.000Z</time>
      </trkpt>
      <trkpt lat="45.14759" lon="5.82833">
        <ele>391.87</ele>
        <time>2020-10-11T10:51:00.000Z</time>
      </trkpt>
      <trkpt lat="45.14785" lon="5.82821">
        <ele>392.21</ele>
        <time>2020-10-11T10:51:05.000Z</time>
      </trkpt>
      <trkpt lat="45.14809" lon="5.82801">
        <ele>397.53</ele>
        <time>2020-10-11T10:51:10.000Z</time>
      </trkpt>
      <trkpt lat="45.14836" lon="5.82773">
        <ele>391.65</ele>
        <time>2020-10-11T10:51:15.000Z</time>
      </trkpt>
      <trkpt lat="45.14866" lon="5.82739">
        <ele>388.59</ele>
        <time>2020-10-11T10:51:20.000Z</time>
      </trkpt>
      <trkpt lat="45.14889" lon="5.82703">
        <ele>389.86</ele>
        <time>2020-10-11T10:51:25.000Z</time>
      </trkpt>
      <trkpt lat="45.14908" lon="5.82661">
        <ele>389.44</ele>
        <time>2020-10-11T10:51:30.000Z</time>
      </trkpt>
      <trkpt lat="45.14924" lon="5.8263">
        <ele>390.91</ele>
        <time>2020-10-11T10:51:35.000Z</time>
      </trkpt>
      <trkpt lat="45.14942" lon="5.82589">
        <ele>387.48</ele>
        <time>2020-10-11T10:51:40.000Z</time>
      </trkpt>
      <trkpt lat="45.14963" lon="5.82547">
        <ele>386.31</ele>
        <time>2020-10-11T10:51:45.000Z</time>
      </trkpt>
      <trkpt lat="45.14989" lon="5.82512">
        <ele>382.65</ele>
        <time>2020-10-11T10:51:50.000Z</time>
      </trkpt>
      <trkpt lat="45.15021" lon="5.82481">
        <ele>384.97</ele>
        <time>2020-10-11T10:51:55.000Z</time>
      </trkpt>
      <trkpt lat="45.15057" lon="5.82462">
        <ele>384.12</ele>
        <time>2020-10-11T10:52:00.000Z</time>
      </trkpt>
      <trkpt lat="45.15091" lon="5.82457">
        <ele>383.1</ele>
        <time>2020-10-11T10:52:05.000Z</time>
      </trkpt>
      <trkpt lat="45.15123" lon="5.82456">
        <ele>379.83</ele>
        <time>2020-10-11T10:52:10.000Z</time>
      </trkpt>
      <trkpt lat="45.15153" lon="5.82459">
        <ele>379.17</ele>
        <time>2020-10-11T10:52:15.000Z</time>
      </trkpt>
      <trkpt lat="45.15186" lon="5.82471">
        <ele>378.92</ele>
        <time>2020-10-11T10:52:20.000Z</time>
      </trkpt>
      <trkpt lat="45.15222" lon="5.82493">
        <ele>379.88</ele>
        <time>2020-10-11T10:52:25.000Z</time>
      </trkpt>
      <trkpt lat="45.15254" lon="5.8252">
        <ele>382.03</ele>
        <time>2020-10-11T10:52:30.000Z</time>
      </trkpt>
      <trkpt lat="45.15281" lon="5.82544">
        <ele>382.33</ele>
        <time>2020-10-11T10:52:35.000Z</time>
      </trkpt>
      <trkpt lat="45.15309" lon="5.82568">
        <ele>382.22</ele>
        <time>2020-10-11T10:52:40.000Z</time>
      </trkpt>
      <trkpt lat="45.15338" lon="5.82588">
        <ele>382.21</ele>
        <time>2020-10-11T10:52:45.000Z</time>
      </trkpt>
      <trkpt lat="45.15369" lon="5.82601">
        <ele>381.87</ele>
        <time>2020-10-11T10:52:50.000Z</time>
      </trkpt>
      <trkpt lat="45.15401" lon="5.82608">
        <ele>380.04</ele>
        <time>2020-10-11T10:52:55.000Z</time>
      </trkpt>
      <trkpt lat="45.1543" lon="5.82603">
        <ele>379.89</ele>
        <time>2020-10-11T10:53:00.000Z</time>
      </trkpt>
      <trkpt lat="45.1546" lon="5.82588">
        <ele>377.02</ele>
        <time>2020-10-11T10:53:05.000Z</time>
      </trkpt>
      <trkpt lat="45.15484" lon="5.82563">
        <ele>377.64</ele>
        <time>2020-10-11T10:53:10.000Z</time>
      </trkpt>
      <trkpt lat="45.15506" lon="5.82532">
        <ele>378.25</ele>
        <time>2020-10-11T10:53:15.000Z</time>
      </trkpt>
      <trkpt lat="45.15529" lon="5.82505">
        <ele>376.65</ele>
        <time>2020-10-11T10:53:20.000Z</time>
      </trkpt>
      <trkpt lat="45.15549" lon="5.82478">
        <ele>380</ele>
        <time>2020-10-11T10:53:25.000Z</time>
      </trkpt>
      <trkpt lat="45.15571" lon="5.82454">
        <ele>376.63</ele>
        <time>2020-10-11T10:53:30.000Z</time>
      </trkpt>
      <trkpt lat="45.15593" lon="5.82424">
        <ele>377.42</ele>
        <time>2020-10-11T10:53:35.000Z</time>
      </trkpt>
      <trkpt lat="45.15615" lon="5.82395">
        <ele>376.21</ele>
        <time>2020-10-11T10:53:40.000Z</time>
      </trkpt>
      <trkpt lat="45.15641" lon="5.82362">
        <ele>373.76</ele>
        <time>2020-10-11T10:53:45.000Z</time>
      </trkpt>
      <trkpt lat="45.15664" lon="5.82336">
        <ele>370.59</ele>
        <time>2020-10-11T10:53:50.000Z</time>
      </trkpt>
      <trkpt lat="45.15687" lon="5.82309">
        <ele>369.22</ele>
        <time>2020-10-11T10:53:55.000Z</time>
      </trkpt>
      <trkpt lat="45.15707" lon="5.82279">
        <ele>362.97</ele>
        <time>2020-10-11T10:54:00.000Z</time>
      </trkpt>
      <trkpt lat="45.15728" lon="5.8224">
        <ele>365.62</ele>
        <time>2020-10-11T10:54:05.000Z</time>
      </trkpt>
      <trkpt lat="45.15746" lon="5.82205">
        <ele>369.77</ele>
        <time>2020-10-11T10:54:10.000Z</time>
      </trkpt>
      <trkpt lat="45.15764" lon="5.82162">
        <ele>368.77</ele>
        <time>2020-10-11T10:54:15.000Z</time>
      </trkpt>
      <trkpt lat="45.15777" lon="5.82126">
        <ele>370.58</ele>
        <time>2020-10-11T10:54:20.000Z</time>
      </trkpt>
      <trkpt lat="45.15795" lon="5.82087">
        <ele>372.78</ele>
        <time>2020-10-11T10:54:25.000Z</time>
      </trkpt>
      <trkpt lat="45.1582" lon="5.82052">
        <ele>372.77</ele>
        <time>2020-10-11T10:54:30.000Z</time>
      </trkpt>
      <trkpt lat="45.15842" lon="5.82019">
        <ele>371.34</ele>
        <time>2020-10-11T10:54:35.000Z</time>
      </trkpt>
      <trkpt lat="45.15864" lon="5.81986">
        <ele>369.08</ele>
        <time>2020-10-11T10:54:40.000Z</time>
      </trkpt>
      <trkpt lat="45.15885" lon="5.81951">
        <ele>369.05</ele>
        <time>2020-10-11T10:54:45.000Z</time>
      </trkpt>
      <trkpt lat="45.15908" lon="5.81928">
        <ele>364.97</ele>
        <time>2020-10-11T10:54:50.000Z</time>
      </trkpt>
      <trkpt lat="45.1593" lon="5.81907">
        <ele>363.16</ele>
        <time>2020-10-11T10:54:55.000Z</time>
      </trkpt>
      <trkpt lat="45.15947" lon="5.81884">
        <ele>359.49</ele>
        <time>2020-10-11T10:55:00.000Z</time>
      </trkpt>
      <trkpt lat="45.15967" lon="5.81855">
        <ele>357.35</ele>
        <time>2020-10-11T10:55:05.000Z</time>
      </trkpt>
      <trkpt lat="45.1599" lon="5.8182">
        <ele>353.89</ele>
        <time>2020-10-11T10:55:10.000Z</time>
      </trkpt>
      <trkpt lat="45.16012" lon="5.81785">
        <ele>352.54</ele>
        <time>2020-10-11T10:55:15.000Z</time>
      </trkpt>
      <trkpt lat="45.16035" lon="5.81754">
        <ele>350.7</ele>
        <time>2020-10-11T10:55:20.000Z</time>
      </trkpt>
      <trkpt lat="45.16064" lon="5.81721">
        <ele>350.55</ele>
        <time>2020-10-11T10:55:25.000Z</time>
      </trkpt>
      <trkpt lat="45.16101" lon="5.81701">
        <ele>351.12</ele>
        <time>2020-10-11T10:55:30.000Z</time>
      </trkpt>
      <trkpt lat="45.16137" lon="5.81675">
        <ele>351.33</ele>
        <time>2020-10-11T10:55:35.000Z</time>
      </trkpt>
      <trkpt lat="45.16164" lon="5.81639">
        <ele>345.17</ele>
        <time>2020-10-11T10:55:40.000Z</time>
      </trkpt>
      <trkpt lat="45.16188" lon="5.81598">
        <ele>346.49</ele>
        <time>2020-10-11T10:55:45.000Z</time>
      </trkpt>
      <trkpt lat="45.16211" lon="5.81546">
        <ele>345.72</ele>
        <time>2020-10-11T10:55:50.000Z</time>
      </trkpt>
      <trkpt lat="45.16228" lon="5.81494">
        <ele>345.22</ele>
        <time>2020-10-11T10:55:55.000Z</time>
      </trkpt>
      <trkpt lat="45.16251" lon="5.81449">
        <ele>343.54</ele>
        <time>2020-10-11T10:56:00.000Z</time>
      </trkpt>
      <trkpt lat="45.1627" lon="5.81404">
        <ele>339.92</ele>
        <time>2020-10-11T10:56:05.000Z</time>
      </trkpt>
      <trkpt lat="45.16289" lon="5.8135">
        <ele>340.13</ele>
        <time>2020-10-11T10:56:10.000Z</time>
      </trkpt>
      <trkpt lat="45.16306" lon="5.81304">
        <ele>337.62</ele>
        <time>2020-10-11T10:56:15.000Z</time>
      </trkpt>
      <trkpt lat="45.16313" lon="5.81267">
        <ele>335.48</ele>
        <time>2020-10-11T10:56:20.000Z</time>
      </trkpt>
      <trkpt lat="45.16328" lon="5.81255">
        <ele>335.41</ele>
        <time>2020-10-11T10:56:25.000Z</time>
      </trkpt>
      <trkpt lat="45.16343" lon="5.81254">
        <ele>334.77</ele>
        <time>2020-10-11T10:56:30.000Z</time>
      </trkpt>
      <trkpt lat="45.16356" lon="5.81244">
        <ele>337.23</ele>
        <time>2020-10-11T10:56:35.000Z</time>
      </trkpt>
      <trkpt lat="45.16372" lon="5.81248">
        <ele>337.66</ele>
        <time>2020-10-11T10:56:40.000Z</time>
      </trkpt>
      <trkpt lat="45.16375" lon="5.81265">
        <ele>336.78</ele>
        <time>2020-10-11T10:56:45.000Z</time>
      </trkpt>
      <trkpt lat="45.16369" lon="5.81287">
        <ele>338.79</ele>
        <time>2020-10-11T10:56:50.000Z</time>
      </trkpt>
      <trkpt lat="45.16375" lon="5.81309">
        <ele>340.58</ele>
        <time>2020-10-11T10:56:55.000Z</time>
      </trkpt>
      <trkpt lat="45.1639" lon="5.81321">
        <ele>345.6</ele>
        <time>2020-10-11T10:57:00.000Z</time>
      </trkpt>
      <trkpt lat="45.16405" lon="5.81331">
        <ele>346.45</ele>
        <time>2020-10-11T10:57:05.000Z</time>
      </trkpt>
      <trkpt lat="45.16413" lon="5.81346">
        <ele>347.19</ele>
        <time>2020-10-11T10:57:10.000Z</time>
      </trkpt>
      <trkpt lat="45.16395" lon="5.81361">
        <ele>352.14</ele>
        <time>2020-10-11T10:57:15.000Z</time>
      </trkpt>
      <trkpt lat="45.16377" lon="5.81367">
        <ele>358.99</ele>
        <time>2020-10-11T10:57:20.000Z</time>
      </trkpt>
      <trkpt lat="45.16364" lon="5.81382">
        <ele>355.46</ele>
        <time>2020-10-11T10:57:25.000Z</time>
      </trkpt>
      <trkpt lat="45.16351" lon="5.81404">
        <ele>356.82</ele>
        <time>2020-10-11T10:57:30.000Z</time>
      </trkpt>
      <trkpt lat="45.16343" lon="5.81423">
        <ele>358.64</ele>
        <time>2020-10-11T10:57:35.000Z</time>
      </trkpt>
      <trkpt lat="45.16335" lon="5.81443">
        <ele>358.98</ele>
        <time>2020-10-11T10:57:40.000Z</time>
      </trkpt>
      <trkpt lat="45.16323" lon="5.81462">
        <ele>360.46</ele>
        <time>2020-10-11T10:57:45.000Z</time>
      </trkpt>
      <trkpt lat="45.16311" lon="5.8148">
        <ele>364</ele>
        <time>2020-10-11T10:57:50.000Z</time>
      </trkpt>
      <trkpt lat="45.163" lon="5.81495">
        <ele>365.47</ele>
        <time>2020-10-11T10:57:55.000Z</time>
      </trkpt>
      <trkpt lat="45.16289" lon="5.81506">
        <ele>367</ele>
        <time>2020-10-11T10:58:00.000Z</time>
      </trkpt>
      <trkpt lat="45.16279" lon="5.81525">
        <ele>367.04</ele>
        <time>2020-10-11T10:58:05.000Z</time>
      </trkpt>
      <trkpt lat="45.1627" lon="5.81548">
        <ele>369.63</ele>
        <time>2020-10-11T10:58:10.000Z</time>
      </trkpt>
      <trkpt lat="45.16262" lon="5.81571">
        <ele>374.1</ele>
        <time>2020-10-11T10:58:15.000Z</time>
      </trkpt>
      <trkpt lat="45.16257" lon="5.81594">
        <ele>377.45</ele>
        <time>2020-10-11T10:58:20.000Z</time>
      </trkpt>
      <trkpt lat="45.16252" lon="5.81614">
        <ele>381</ele>
        <time>2020-10-11T10:58:25.000Z</time>
      </trkpt>
      <trkpt lat="45.16246" lon="5.81634">
        <ele>380.52</ele>
        <time>2020-10-11T10:58:30.000Z</time>
      </trkpt>
      <trkpt lat="45.16238" lon="5.81655">
        <ele>379.12</ele>
        <time>2020-10-11T10:58:35.000Z</time>
      </trkpt>
      <trkpt lat="45.16236" lon="5.81677">
        <ele>378.12</ele>
        <time>2020-10-11T10:58:40.000Z</time>
      </trkpt>
      <trkpt lat="45.16231" lon="5.817">
        <ele>383.7</ele>
        <time>2020-10-11T10:58:45.000Z</time>
      </trkpt>
      <trkpt lat="45.16227" lon="5.81723">
        <ele>381.75</ele>
        <time>2020-10-11T10:58:50.000Z</time>
      </trkpt>
      <trkpt lat="45.16227" lon="5.81746">
        <ele>383.73</ele>
        <time>2020-10-11T10:58:55.000Z</time>
      </trkpt>
      <trkpt lat="45.16224" lon="5.81767">
        <ele>387.47</ele>
        <time>2020-10-11T10:59:00.000Z</time>
      </trkpt>
      <trkpt lat="45.16216" lon="5.81788">
        <ele>387.28</ele>
        <time>2020-10-11T10:59:05.000Z</time>
      </trkpt>
      <trkpt lat="45.16215" lon="5.81809">
        <ele>385.43</ele>
        <time>2020-10-11T10:59:10.000Z</time>
      </trkpt>
      <trkpt lat="45.16211" lon="5.81832">
        <ele>391.08</ele>
        <time>2020-10-11T10:59:15.000Z</time>
      </trkpt>
      <trkpt lat="45.1621" lon="5.81855">
        <ele>394.83</ele>
        <time>2020-10-11T10:59:20.000Z</time>
      </trkpt>
      <trkpt lat="45.16207" lon="5.81874">
        <ele>395.89</ele>
        <time>2020-10-11T10:59:25.000Z</time>
      </trkpt>
      <trkpt lat="45.16199" lon="5.81892">
        <ele>401.1</ele>
        <time>2020-10-11T10:59:30.000Z</time>
      </trkpt>
      <trkpt lat="45.16208" lon="5.81895">
        <ele>404.63</ele>
        <time>2020-10-11T10:59:58.000Z</time>
      </trkpt>
      <trkpt lat="45.16215" lon="5.81878">
        <ele>404.65</ele>
        <time>2020-10-11T11:00:03.000Z</time>
      </trkpt>
      <trkpt lat="45.16221" lon="5.8186">
        <ele>404.99</ele>
        <time>2020-10-11T11:00:08.000Z</time>
      </trkpt>
      <trkpt lat="45.16227" lon="5.81842">
        <ele>403.73</ele>
        <time>2020-10-11T11:00:13.000Z</time>
      </trkpt>
      <trkpt lat="45.16232" lon="5.81818">
        <ele>409.49</ele>
        <time>2020-10-11T11:00:18.000Z</time>
      </trkpt>
      <trkpt lat="45.16239" lon="5.81799">
        <ele>412.61</ele>
        <time>2020-10-11T11:00:23.000Z</time>
      </trkpt>
      <trkpt lat="45.16251" lon="5.81787">
        <ele>415.56</ele>
        <time>2020-10-11T11:00:28.000Z</time>
      </trkpt>
      <trkpt lat="45.16261" lon="5.81773">
        <ele>419.58</ele>
        <time>2020-10-11T11:00:33.000Z</time>
      </trkpt>
      <trkpt lat="45.16259" lon="5.8175">
        <ele>422.83</ele>
        <time>2020-10-11T11:00:38.000Z</time>
      </trkpt>
      <trkpt lat="45.16264" lon="5.81728">
        <ele>426.32</ele>
        <time>2020-10-11T11:00:43.000Z</time>
      </trkpt>
      <trkpt lat="45.16274" lon="5.81712">
        <ele>426.1</ele>
        <time>2020-10-11T11:00:48.000Z</time>
      </trkpt>
      <trkpt lat="45.16285" lon="5.81699">
        <ele>424.46</ele>
        <time>2020-10-11T11:00:53.000Z</time>
      </trkpt>
      <trkpt lat="45.16292" lon="5.81682">
        <ele>428.1</ele>
        <time>2020-10-11T11:00:58.000Z</time>
      </trkpt>
      <trkpt lat="45.163" lon="5.81666">
        <ele>431.08</ele>
        <time>2020-10-11T11:01:03.000Z</time>
      </trkpt>
      <trkpt lat="45.16308" lon="5.81652">
        <ele>433.41</ele>
        <time>2020-10-11T11:01:08.000Z</time>
      </trkpt>
      <trkpt lat="45.16325" lon="5.81658">
        <ele>432.19</ele>
        <time>2020-10-11T11:01:13.000Z</time>
      </trkpt>
      <trkpt lat="45.16321" lon="5.81679">
        <ele>433.37</ele>
        <time>2020-10-11T11:01:18.000Z</time>
      </trkpt>
      <trkpt lat="45.16313" lon="5.81701">
        <ele>432.92</ele>
        <time>2020-10-11T11:01:23.000Z</time>
      </trkpt>
      <trkpt lat="45.16309" lon="5.81724">
        <ele>433.21</ele>
        <time>2020-10-11T11:01:28.000Z</time>
      </trkpt>
      <trkpt lat="45.16305" lon="5.81746">
        <ele>433.94</ele>
        <time>2020-10-11T11:01:33.000Z</time>
      </trkpt>
      <trkpt lat="45.16305" lon="5.81767">
        <ele>435.72</ele>
        <time>2020-10-11T11:01:38.000Z</time>
      </trkpt>
      <trkpt lat="45.16306" lon="5.81787">
        <ele>437.37</ele>
        <time>2020-10-11T11:01:43.000Z</time>
      </trkpt>
      <trkpt lat="45.16305" lon="5.81807">
        <ele>434.03</ele>
        <time>2020-10-11T11:01:48.000Z</time>
      </trkpt>
      <trkpt lat="45.163" lon="5.81825">
        <ele>433.98</ele>
        <time>2020-10-11T11:01:53.000Z</time>
      </trkpt>
      <trkpt lat="45.16291" lon="5.81844">
        <ele>436.61</ele>
        <time>2020-10-11T11:01:58.000Z</time>
      </trkpt>
      <trkpt lat="45.16285" lon="5.81868">
        <ele>442.22</ele>
        <time>2020-10-11T11:02:03.000Z</time>
      </trkpt>
      <trkpt lat="45.16285" lon="5.81895">
        <ele>446.21</ele>
        <time>2020-10-11T11:02:08.000Z</time>
      </trkpt>
      <trkpt lat="45.16286" lon="5.8192">
        <ele>452.52</ele>
        <time>2020-10-11T11:02:13.000Z</time>
      </trkpt>
      <trkpt lat="45.16284" lon="5.81941">
        <ele>453.79</ele>
        <time>2020-10-11T11:02:18.000Z</time>
      </trkpt>
      <trkpt lat="45.1628" lon="5.8196">
        <ele>454.38</ele>
        <time>2020-10-11T11:02:23.000Z</time>
      </trkpt>
      <trkpt lat="45.16278" lon="5.81986">
        <ele>453.94</ele>
        <time>2020-10-11T11:02:28.000Z</time>
      </trkpt>
      <trkpt lat="45.1628" lon="5.82008">
        <ele>454.99</ele>
        <time>2020-10-11T11:02:33.000Z</time>
      </trkpt>
      <trkpt lat="45.16284" lon="5.82026">
        <ele>459.34</ele>
        <time>2020-10-11T11:02:38.000Z</time>
      </trkpt>
      <trkpt lat="45.1629" lon="5.82048">
        <ele>463.8</ele>
        <time>2020-10-11T11:02:43.000Z</time>
      </trkpt>
      <trkpt lat="45.16292" lon="5.82068">
        <ele>468.82</ele>
        <time>2020-10-11T11:02:48.000Z</time>
      </trkpt>
      <trkpt lat="45.16295" lon="5.8209">
        <ele>467.18</ele>
        <time>2020-10-11T11:02:53.000Z</time>
      </trkpt>
      <trkpt lat="45.16297" lon="5.82112">
        <ele>468.37</ele>
        <time>2020-10-11T11:02:58.000Z</time>
      </trkpt>
      <trkpt lat="45.16298" lon="5.82134">
        <ele>470.43</ele>
        <time>2020-10-11T11:03:03.000Z</time>
      </trkpt>
      <trkpt lat="45.16296" lon="5.82155">
        <ele>467.55</ele>
        <time>2020-10-11T11:03:08.000Z</time>
      </trkpt>
      <trkpt lat="45.16299" lon="5.8218">
        <ele>465.45</ele>
        <time>2020-10-11T11:03:13.000Z</time>
      </trkpt>
      <trkpt lat="45.163" lon="5.82202">
        <ele>471.73</ele>
        <time>2020-10-11T11:03:18.000Z</time>
      </trkpt>
      <trkpt lat="45.16302" lon="5.82228">
        <ele>480.43</ele>
        <time>2020-10-11T11:03:23.000Z</time>
      </trkpt>
      <trkpt lat="45.16306" lon="5.82251">
        <ele>482.02</ele>
        <time>2020-10-11T11:03:28.000Z</time>
      </trkpt>
      <trkpt lat="45.16309" lon="5.82276">
        <ele>482.82</ele>
        <time>2020-10-11T11:03:33.000Z</time>
      </trkpt>
      <trkpt lat="45.16309" lon="5.82302">
        <ele>486.26</ele>
        <time>2020-10-11T11:03:38.000Z</time>
      </trkpt>
      <trkpt lat="45.16313" lon="5.82329">
        <ele>484.9</ele>
        <time>2020-10-11T11:03:43.000Z</time>
      </trkpt>
      <trkpt lat="45.16317" lon="5.82356">
        <ele>490.72</ele>
        <time>2020-10-11T11:03:48.000Z</time>
      </trkpt>
      <trkpt lat="45.16325" lon="5.8238">
        <ele>494.7</ele>
        <time>2020-10-11T11:03:53.000Z</time>
      </trkpt>
      <trkpt lat="45.16327" lon="5.82399">
        <ele>498.14</ele>
        <time>2020-10-11T11:03:58.000Z</time>
      </trkpt>
      <trkpt lat="45.16329" lon="5.82424">
        <ele>499.24</ele>
        <time>2020-10-11T11:04:03.000Z</time>
      </trkpt>
      <trkpt lat="45.16336" lon="5.82449">
        <ele>500.02</ele>
        <time>2020-10-11T11:04:08.000Z</time>
      </trkpt>
      <trkpt lat="45.16343" lon="5.82473">
        <ele>502</ele>
        <time>2020-10-11T11:04:13.000Z</time>
      </trkpt>
      <trkpt lat="45.16345" lon="5.82493">
        <ele>504.08</ele>
        <time>2020-10-11T11:04:18.000Z</time>
      </trkpt>
      <trkpt lat="45.16348" lon="5.82512">
        <ele>504.94</ele>
        <time>2020-10-11T11:04:23.000Z</time>
      </trkpt>
      <trkpt lat="45.16351" lon="5.82533">
        <ele>502.56</ele>
        <time>2020-10-11T11:04:28.000Z</time>
      </trkpt>
      <trkpt lat="45.16358" lon="5.82548">
        <ele>508.87</ele>
        <time>2020-10-11T11:04:33.000Z</time>
      </trkpt>
      <trkpt lat="45.16367" lon="5.8256">
        <ele>511.63</ele>
        <time>2020-10-11T11:04:38.000Z</time>
      </trkpt>
      <trkpt lat="45.16383" lon="5.82567">
        <ele>511.23</ele>
        <time>2020-10-11T11:04:43.000Z</time>
      </trkpt>
      <trkpt lat="45.16397" lon="5.82575">
        <ele>513.04</ele>
        <time>2020-10-11T11:04:48.000Z</time>
      </trkpt>
      <trkpt lat="45.16411" lon="5.82584">
        <ele>517.08</ele>
        <time>2020-10-11T11:04:53.000Z</time>
      </trkpt>
      <trkpt lat="45.16423" lon="5.826">
        <ele>519.97</ele>
        <time>2020-10-11T11:04:58.000Z</time>
      </trkpt>
      <trkpt lat="45.16435" lon="5.82621">
        <ele>523.49</ele>
        <time>2020-10-11T11:05:03.000Z</time>
      </trkpt>
      <trkpt lat="45.16445" lon="5.82638">
        <ele>519.38</ele>
        <time>2020-10-11T11:05:08.000Z</time>
      </trkpt>
      <trkpt lat="45.16459" lon="5.8265">
        <ele>521.43</ele>
        <time>2020-10-11T11:05:13.000Z</time>
      </trkpt>
      <trkpt lat="45.16468" lon="5.82669">
        <ele>524.52</ele>
        <time>2020-10-11T11:05:18.000Z</time>
      </trkpt>
      <trkpt lat="45.16483" lon="5.82691">
        <ele>526.22</ele>
        <time>2020-10-11T11:05:23.000Z</time>
      </trkpt>
      <trkpt lat="45.16492" lon="5.82707">
        <ele>528.11</ele>
        <time>2020-10-11T11:05:28.000Z</time>
      </trkpt>
      <trkpt lat="45.16499" lon="5.82725">
        <ele>531.35</ele>
        <time>2020-10-11T11:05:33.000Z</time>
      </trkpt>
      <trkpt lat="45.165" lon="5.82749">
        <ele>533.55</ele>
        <time>2020-10-11T11:05:38.000Z</time>
      </trkpt>
      <trkpt lat="45.16504" lon="5.82771">
        <ele>536.22</ele>
        <time>2020-10-11T11:05:43.000Z</time>
      </trkpt>
      <trkpt lat="45.16509" lon="5.82791">
        <ele>540.76</ele>
        <time>2020-10-11T11:05:48.000Z</time>
      </trkpt>
      <trkpt lat="45.16514" lon="5.82811">
        <ele>545.36</ele>
        <time>2020-10-11T11:05:53.000Z</time>
      </trkpt>
      <trkpt lat="45.16518" lon="5.82831">
        <ele>547.21</ele>
        <time>2020-10-11T11:05:58.000Z</time>
      </trkpt>
      <trkpt lat="45.16515" lon="5.82846">
        <ele>552.65</ele>
        <time>2020-10-11T11:06:03.000Z</time>
      </trkpt>
      <trkpt lat="45.16505" lon="5.82852">
        <ele>556.59</ele>
        <time>2020-10-11T11:06:22.000Z</time>
      </trkpt>
      <trkpt lat="45.16491" lon="5.82842">
        <ele>554.45</ele>
        <time>2020-10-11T11:06:27.000Z</time>
      </trkpt>
      <trkpt lat="45.16479" lon="5.8283">
        <ele>558.02</ele>
        <time>2020-10-11T11:06:32.000Z</time>
      </trkpt>
      <trkpt lat="45.1647" lon="5.82824">
        <ele>564.03</ele>
        <time>2020-10-11T11:06:37.000Z</time>
      </trkpt>
      <trkpt lat="45.16461" lon="5.8282">
        <ele>579.91</ele>
        <time>2020-10-11T11:06:48.000Z</time>
      </trkpt>
      <trkpt lat="45.16454" lon="5.8281">
        <ele>589.21</ele>
        <time>2020-10-11T11:10:34.000Z</time>
      </trkpt>
      <trkpt lat="45.16442" lon="5.82805">
        <ele>590.74</ele>
        <time>2020-10-11T11:10:39.000Z</time>
      </trkpt>
      <trkpt lat="45.16426" lon="5.82794">
        <ele>597.55</ele>
        <time>2020-10-11T11:10:44.000Z</time>
      </trkpt>
      <trkpt lat="45.16407" lon="5.82784">
        <ele>601.26</ele>
        <time>2020-10-11T11:10:49.000Z</time>
      </trkpt>
      <trkpt lat="45.16394" lon="5.82771">
        <ele>595.15</ele>
        <time>2020-10-11T11:10:54.000Z</time>
      </trkpt>
      <trkpt lat="45.16382" lon="5.82758">
        <ele>595.33</ele>
        <time>2020-10-11T11:10:59.000Z</time>
      </trkpt>
      <trkpt lat="45.1637" lon="5.82748">
        <ele>593.01</ele>
        <time>2020-10-11T11:11:04.000Z</time>
      </trkpt>
      <trkpt lat="45.16357" lon="5.82739">
        <ele>590.87</ele>
        <time>2020-10-11T11:11:09.000Z</time>
      </trkpt>
      <trkpt lat="45.16342" lon="5.82724">
        <ele>589.5</ele>
        <time>2020-10-11T11:11:14.000Z</time>
      </trkpt>
      <trkpt lat="45.16326" lon="5.82712">
        <ele>589.14</ele>
        <time>2020-10-11T11:11:19.000Z</time>
      </trkpt>
      <trkpt lat="45.1631" lon="5.82708">
        <ele>590.93</ele>
        <time>2020-10-11T11:11:24.000Z</time>
      </trkpt>
      <trkpt lat="45.16293" lon="5.82701">
        <ele>594.15</ele>
        <time>2020-10-11T11:11:29.000Z</time>
      </trkpt>
      <trkpt lat="45.16279" lon="5.82695">
        <ele>597.14</ele>
        <time>2020-10-11T11:11:34.000Z</time>
      </trkpt>
      <trkpt lat="45.16265" lon="5.82694">
        <ele>589.74</ele>
        <time>2020-10-11T11:11:39.000Z</time>
      </trkpt>
      <trkpt lat="45.16249" lon="5.827">
        <ele>588.53</ele>
        <time>2020-10-11T11:11:44.000Z</time>
      </trkpt>
      <trkpt lat="45.16242" lon="5.82715">
        <ele>580.95</ele>
        <time>2020-10-11T11:11:49.000Z</time>
      </trkpt>
      <trkpt lat="45.16237" lon="5.82734">
        <ele>580.53</ele>
        <time>2020-10-11T11:11:54.000Z</time>
      </trkpt>
      <trkpt lat="45.16235" lon="5.82754">
        <ele>582.02</ele>
        <time>2020-10-11T11:11:59.000Z</time>
      </trkpt>
      <trkpt lat="45.16232" lon="5.82774">
        <ele>583.26</ele>
        <time>2020-10-11T11:12:04.000Z</time>
      </trkpt>
      <trkpt lat="45.16227" lon="5.82793">
        <ele>586.9</ele>
        <time>2020-10-11T11:12:09.000Z</time>
      </trkpt>
      <trkpt lat="45.16222" lon="5.82809">
        <ele>584.96</ele>
        <time>2020-10-11T11:12:14.000Z</time>
      </trkpt>
      <trkpt lat="45.16219" lon="5.82823">
        <ele>583.26</ele>
        <time>2020-10-11T11:12:19.000Z</time>
      </trkpt>
      <trkpt lat="45.16215" lon="5.82835">
        <ele>578.55</ele>
        <time>2020-10-11T11:12:25.000Z</time>
      </trkpt>
      <trkpt lat="45.16212" lon="5.82853">
        <ele>582.44</ele>
        <time>2020-10-11T11:12:30.000Z</time>
      </trkpt>
      <trkpt lat="45.16206" lon="5.82869">
        <ele>587.67</ele>
        <time>2020-10-11T11:12:35.000Z</time>
      </trkpt>
      <trkpt lat="45.16198" lon="5.82884">
        <ele>587.98</ele>
        <time>2020-10-11T11:12:40.000Z</time>
      </trkpt>
      <trkpt lat="45.1619" lon="5.82901">
        <ele>589.06</ele>
        <time>2020-10-11T11:12:45.000Z</time>
      </trkpt>
      <trkpt lat="45.1618" lon="5.82917">
        <ele>588.8</ele>
        <time>2020-10-11T11:12:50.000Z</time>
      </trkpt>
      <trkpt lat="45.16168" lon="5.82932">
        <ele>591.25</ele>
        <time>2020-10-11T11:12:55.000Z</time>
      </trkpt>
      <trkpt lat="45.16156" lon="5.82949">
        <ele>590.67</ele>
        <time>2020-10-11T11:13:00.000Z</time>
      </trkpt>
      <trkpt lat="45.16143" lon="5.82964">
        <ele>594.25</ele>
        <time>2020-10-11T11:13:05.000Z</time>
      </trkpt>
      <trkpt lat="45.16127" lon="5.82974">
        <ele>597.88</ele>
        <time>2020-10-11T11:13:10.000Z</time>
      </trkpt>
      <trkpt lat="45.16114" lon="5.82986">
        <ele>602.95</ele>
        <time>2020-10-11T11:13:15.000Z</time>
      </trkpt>
      <trkpt lat="45.16102" lon="5.82997">
        <ele>603.1</ele>
        <time>2020-10-11T11:13:20.000Z</time>
      </trkpt>
      <trkpt lat="45.1609" lon="5.8301">
        <ele>601.82</ele>
        <time>2020-10-11T11:13:25.000Z</time>
      </trkpt>
      <trkpt lat="45.16077" lon="5.8302">
        <ele>603.97</ele>
        <time>2020-10-11T11:13:30.000Z</time>
      </trkpt>
      <trkpt lat="45.16063" lon="5.83027">
        <ele>600.96</ele>
        <time>2020-10-11T11:13:35.000Z</time>
      </trkpt>
      <trkpt lat="45.16051" lon="5.83034">
        <ele>601.88</ele>
        <time>2020-10-11T11:13:40.000Z</time>
      </trkpt>
      <trkpt lat="45.1604" lon="5.83041">
        <ele>602.02</ele>
        <time>2020-10-11T11:13:45.000Z</time>
      </trkpt>
      <trkpt lat="45.16031" lon="5.83056">
        <ele>602</ele>
        <time>2020-10-11T11:13:50.000Z</time>
      </trkpt>
      <trkpt lat="45.16032" lon="5.83076">
        <ele>602.27</ele>
        <time>2020-10-11T11:13:55.000Z</time>
      </trkpt>
      <trkpt lat="45.16035" lon="5.83098">
        <ele>601.96</ele>
        <time>2020-10-11T11:14:00.000Z</time>
      </trkpt>
      <trkpt lat="45.16037" lon="5.83119">
        <ele>604.95</ele>
        <time>2020-10-11T11:14:05.000Z</time>
      </trkpt>
      <trkpt lat="45.16039" lon="5.8314">
        <ele>608.19</ele>
        <time>2020-10-11T11:14:10.000Z</time>
      </trkpt>
      <trkpt lat="45.16043" lon="5.8316">
        <ele>607.7</ele>
        <time>2020-10-11T11:14:15.000Z</time>
      </trkpt>
      <trkpt lat="45.16047" lon="5.83179">
        <ele>611.25</ele>
        <time>2020-10-11T11:14:20.000Z</time>
      </trkpt>
      <trkpt lat="45.16056" lon="5.83195">
        <ele>614.65</ele>
        <time>2020-10-11T11:14:25.000Z</time>
      </trkpt>
      <trkpt lat="45.16065" lon="5.83211">
        <ele>614.07</ele>
        <time>2020-10-11T11:14:30.000Z</time>
      </trkpt>
      <trkpt lat="45.16074" lon="5.8323">
        <ele>616.66</ele>
        <time>2020-10-11T11:14:35.000Z</time>
      </trkpt>
      <trkpt lat="45.16082" lon="5.83246">
        <ele>619.29</ele>
        <time>2020-10-11T11:14:40.000Z</time>
      </trkpt>
      <trkpt lat="45.16093" lon="5.83263">
        <ele>620.48</ele>
        <time>2020-10-11T11:14:45.000Z</time>
      </trkpt>
      <trkpt lat="45.16104" lon="5.83279">
        <ele>621.89</ele>
        <time>2020-10-11T11:14:50.000Z</time>
      </trkpt>
      <trkpt lat="45.16118" lon="5.83293">
        <ele>623.86</ele>
        <time>2020-10-11T11:14:55.000Z</time>
      </trkpt>
      <trkpt lat="45.16131" lon="5.83303">
        <ele>629.06</ele>
        <time>2020-10-11T11:15:00.000Z</time>
      </trkpt>
      <trkpt lat="45.16143" lon="5.83311">
        <ele>627.52</ele>
        <time>2020-10-11T11:15:05.000Z</time>
      </trkpt>
      <trkpt lat="45.16152" lon="5.83318">
        <ele>626.41</ele>
        <time>2020-10-11T11:15:10.000Z</time>
      </trkpt>
      <trkpt lat="45.16164" lon="5.83325">
        <ele>627.68</ele>
        <time>2020-10-11T11:15:15.000Z</time>
      </trkpt>
      <trkpt lat="45.16176" lon="5.83332">
        <ele>623.43</ele>
        <time>2020-10-11T11:15:20.000Z</time>
      </trkpt>
      <trkpt lat="45.1619" lon="5.83341">
        <ele>626.96</ele>
        <time>2020-10-11T11:15:25.000Z</time>
      </trkpt>
      <trkpt lat="45.16202" lon="5.83349">
        <ele>629.43</ele>
        <time>2020-10-11T11:15:30.000Z</time>
      </trkpt>
      <trkpt lat="45.16215" lon="5.83358">
        <ele>631.63</ele>
        <time>2020-10-11T11:15:35.000Z</time>
      </trkpt>
      <trkpt lat="45.16227" lon="5.83365">
        <ele>633.02</ele>
        <time>2020-10-11T11:15:40.000Z</time>
      </trkpt>
      <trkpt lat="45.1624" lon="5.83369">
        <ele>636</ele>
        <time>2020-10-11T11:15:45.000Z</time>
      </trkpt>
      <trkpt lat="45.16255" lon="5.83371">
        <ele>636.33</ele>
        <time>2020-10-11T11:15:50.000Z</time>
      </trkpt>
      <trkpt lat="45.16272" lon="5.83374">
        <ele>635.91</ele>
        <time>2020-10-11T11:15:55.000Z</time>
      </trkpt>
      <trkpt lat="45.16286" lon="5.83373">
        <ele>636.94</ele>
        <time>2020-10-11T11:16:00.000Z</time>
      </trkpt>
      <trkpt lat="45.163" lon="5.83374">
        <ele>640.52</ele>
        <time>2020-10-11T11:16:05.000Z</time>
      </trkpt>
      <trkpt lat="45.16313" lon="5.83376">
        <ele>638.93</ele>
        <time>2020-10-11T11:16:10.000Z</time>
      </trkpt>
      <trkpt lat="45.16324" lon="5.83376">
        <ele>637.98</ele>
        <time>2020-10-11T11:16:15.000Z</time>
      </trkpt>
      <trkpt lat="45.16337" lon="5.83382">
        <ele>641.21</ele>
        <time>2020-10-11T11:16:20.000Z</time>
      </trkpt>
      <trkpt lat="45.16349" lon="5.83397">
        <ele>645.71</ele>
        <time>2020-10-11T11:16:25.000Z</time>
      </trkpt>
      <trkpt lat="45.16357" lon="5.83416">
        <ele>642.7</ele>
        <time>2020-10-11T11:16:30.000Z</time>
      </trkpt>
      <trkpt lat="45.16366" lon="5.83432">
        <ele>639.95</ele>
        <time>2020-10-11T11:16:35.000Z</time>
      </trkpt>
      <trkpt lat="45.16375" lon="5.83447">
        <ele>638.15</ele>
        <time>2020-10-11T11:16:40.000Z</time>
      </trkpt>
      <trkpt lat="45.16387" lon="5.83463">
        <ele>640.76</ele>
        <time>2020-10-11T11:16:45.000Z</time>
      </trkpt>
      <trkpt lat="45.16398" lon="5.8348">
        <ele>645.58</ele>
        <time>2020-10-11T11:16:50.000Z</time>
      </trkpt>
      <trkpt lat="45.16406" lon="5.83497">
        <ele>653.05</ele>
        <time>2020-10-11T11:16:55.000Z</time>
      </trkpt>
      <trkpt lat="45.16411" lon="5.83514">
        <ele>657.79</ele>
        <time>2020-10-11T11:17:00.000Z</time>
      </trkpt>
      <trkpt lat="45.1642" lon="5.83528">
        <ele>660.64</ele>
        <time>2020-10-11T11:17:05.000Z</time>
      </trkpt>
      <trkpt lat="45.16427" lon="5.83549">
        <ele>663.75</ele>
        <time>2020-10-11T11:17:10.000Z</time>
      </trkpt>
      <trkpt lat="45.16425" lon="5.83573">
        <ele>663.13</ele>
        <time>2020-10-11T11:17:15.000Z</time>
      </trkpt>
      <trkpt lat="45.16421" lon="5.83589">
        <ele>665.4</ele>
        <time>2020-10-11T11:17:20.000Z</time>
      </trkpt>
      <trkpt lat="45.16417" lon="5.83607">
        <ele>667.22</ele>
        <time>2020-10-11T11:17:25.000Z</time>
      </trkpt>
      <trkpt lat="45.16409" lon="5.83629">
        <ele>665.89</ele>
        <time>2020-10-11T11:17:30.000Z</time>
      </trkpt>
      <trkpt lat="45.164" lon="5.83649">
        <ele>664.86</ele>
        <time>2020-10-11T11:17:35.000Z</time>
      </trkpt>
      <trkpt lat="45.1641" lon="5.83664">
        <ele>668.66</ele>
        <time>2020-10-11T11:17:40.000Z</time>
      </trkpt>
      <trkpt lat="45.16427" lon="5.83669">
        <ele>671.23</ele>
        <time>2020-10-11T11:17:45.000Z</time>
      </trkpt>
      <trkpt lat="45.16445" lon="5.83675">
        <ele>670.55</ele>
        <time>2020-10-11T11:17:50.000Z</time>
      </trkpt>
      <trkpt lat="45.16459" lon="5.8368">
        <ele>673.42</ele>
        <time>2020-10-11T11:17:55.000Z</time>
      </trkpt>
      <trkpt lat="45.16475" lon="5.83685">
        <ele>676.78</ele>
        <time>2020-10-11T11:18:00.000Z</time>
      </trkpt>
      <trkpt lat="45.1649" lon="5.83686">
        <ele>673.93</ele>
        <time>2020-10-11T11:18:05.000Z</time>
      </trkpt>
      <trkpt lat="45.16508" lon="5.83686">
        <ele>675.01</ele>
        <time>2020-10-11T11:18:10.000Z</time>
      </trkpt>
      <trkpt lat="45.16526" lon="5.83684">
        <ele>677.22</ele>
        <time>2020-10-11T11:18:15.000Z</time>
      </trkpt>
      <trkpt lat="45.16542" lon="5.83676">
        <ele>680.68</ele>
        <time>2020-10-11T11:18:20.000Z</time>
      </trkpt>
      <trkpt lat="45.16558" lon="5.83669">
        <ele>680.67</ele>
        <time>2020-10-11T11:18:25.000Z</time>
      </trkpt>
      <trkpt lat="45.16575" lon="5.83662">
        <ele>683.44</ele>
        <time>2020-10-11T11:18:30.000Z</time>
      </trkpt>
      <trkpt lat="45.1659" lon="5.83658">
        <ele>685.04</ele>
        <time>2020-10-11T11:18:35.000Z</time>
      </trkpt>
      <trkpt lat="45.16605" lon="5.83657">
        <ele>688.13</ele>
        <time>2020-10-11T11:18:40.000Z</time>
      </trkpt>
      <trkpt lat="45.1662" lon="5.83656">
        <ele>683.37</ele>
        <time>2020-10-11T11:18:45.000Z</time>
      </trkpt>
      <trkpt lat="45.16635" lon="5.83665">
        <ele>683.46</ele>
        <time>2020-10-11T11:18:50.000Z</time>
      </trkpt>
      <trkpt lat="45.16645" lon="5.83676">
        <ele>682.88</ele>
        <time>2020-10-11T11:18:55.000Z</time>
      </trkpt>
      <trkpt lat="45.1666" lon="5.83684">
        <ele>686.97</ele>
        <time>2020-10-11T11:19:00.000Z</time>
      </trkpt>
      <trkpt lat="45.16676" lon="5.83697">
        <ele>690.79</ele>
        <time>2020-10-11T11:19:05.000Z</time>
      </trkpt>
      <trkpt lat="45.16688" lon="5.83713">
        <ele>688.7</ele>
        <time>2020-10-11T11:19:10.000Z</time>
      </trkpt>
      <trkpt lat="45.16699" lon="5.8373">
        <ele>684.9</ele>
        <time>2020-10-11T11:19:15.000Z</time>
      </trkpt>
      <trkpt lat="45.16712" lon="5.83748">
        <ele>688.91</ele>
        <time>2020-10-11T11:19:20.000Z</time>
      </trkpt>
      <trkpt lat="45.16727" lon="5.83763">
        <ele>691.29</ele>
        <time>2020-10-11T11:19:25.000Z</time>
      </trkpt>
      <trkpt lat="45.16735" lon="5.83775">
        <ele>690.39</ele>
        <time>2020-10-11T11:19:30.000Z</time>
      </trkpt>
      <trkpt lat="45.16746" lon="5.83793">
        <ele>685.3</ele>
        <time>2020-10-11T11:19:35.000Z</time>
      </trkpt>
      <trkpt lat="45.16758" lon="5.83814">
        <ele>687.22</ele>
        <time>2020-10-11T11:19:40.000Z</time>
      </trkpt>
      <trkpt lat="45.16772" lon="5.83837">
        <ele>690.19</ele>
        <time>2020-10-11T11:19:45.000Z</time>
      </trkpt>
      <trkpt lat="45.16784" lon="5.83861">
        <ele>691.74</ele>
        <time>2020-10-11T11:19:50.000Z</time>
      </trkpt>
      <trkpt lat="45.16796" lon="5.83888">
        <ele>690.02</ele>
        <time>2020-10-11T11:19:55.000Z</time>
      </trkpt>
      <trkpt lat="45.16809" lon="5.8392">
        <ele>691.72</ele>
        <time>2020-10-11T11:20:00.000Z</time>
      </trkpt>
      <trkpt lat="45.16822" lon="5.83944">
        <ele>694.72</ele>
        <time>2020-10-11T11:20:05.000Z</time>
      </trkpt>
      <trkpt lat="45.16833" lon="5.83974">
        <ele>695.63</ele>
        <time>2020-10-11T11:20:10.000Z</time>
      </trkpt>
      <trkpt lat="45.16846" lon="5.84003">
        <ele>697.96</ele>
        <time>2020-10-11T11:20:15.000Z</time>
      </trkpt>
      <trkpt lat="45.16856" lon="5.84028">
        <ele>698.23</ele>
        <time>2020-10-11T11:20:20.000Z</time>
      </trkpt>
      <trkpt lat="45.16867" lon="5.84056">
        <ele>698.52</ele>
        <time>2020-10-11T11:20:25.000Z</time>
      </trkpt>
      <trkpt lat="45.16878" lon="5.84084">
        <ele>701.11</ele>
        <time>2020-10-11T11:20:30.000Z</time>
      </trkpt>
      <trkpt lat="45.16889" lon="5.84113">
        <ele>703.15</ele>
        <time>2020-10-11T11:20:35.000Z</time>
      </trkpt>
      <trkpt lat="45.16901" lon="5.84135">
        <ele>706.23</ele>
        <time>2020-10-11T11:20:40.000Z</time>
      </trkpt>
      <trkpt lat="45.16911" lon="5.84158">
        <ele>709.79</ele>
        <time>2020-10-11T11:20:45.000Z</time>
      </trkpt>
      <trkpt lat="45.16919" lon="5.84183">
        <ele>708.6</ele>
        <time>2020-10-11T11:20:50.000Z</time>
      </trkpt>
      <trkpt lat="45.16928" lon="5.84209">
        <ele>709.33</ele>
        <time>2020-10-11T11:20:55.000Z</time>
      </trkpt>
      <trkpt lat="45.16939" lon="5.84235">
        <ele>714.18</ele>
        <time>2020-10-11T11:21:00.000Z</time>
      </trkpt>
      <trkpt lat="45.16951" lon="5.84259">
        <ele>714.24</ele>
        <time>2020-10-11T11:21:05.000Z</time>
      </trkpt>
      <trkpt lat="45.16963" lon="5.84283">
        <ele>715.09</ele>
        <time>2020-10-11T11:21:10.000Z</time>
      </trkpt>
      <trkpt lat="45.16974" lon="5.8431">
        <ele>718.95</ele>
        <time>2020-10-11T11:21:15.000Z</time>
      </trkpt>
      <trkpt lat="45.16986" lon="5.84332">
        <ele>717.97</ele>
        <time>2020-10-11T11:21:20.000Z</time>
      </trkpt>
      <trkpt lat="45.16996" lon="5.84356">
        <ele>718.18</ele>
        <time>2020-10-11T11:21:25.000Z</time>
      </trkpt>
      <trkpt lat="45.17007" lon="5.84384">
        <ele>721.44</ele>
        <time>2020-10-11T11:21:30.000Z</time>
      </trkpt>
      <trkpt lat="45.17018" lon="5.8441">
        <ele>722.23</ele>
        <time>2020-10-11T11:21:35.000Z</time>
      </trkpt>
      <trkpt lat="45.17029" lon="5.84435">
        <ele>721.92</ele>
        <time>2020-10-11T11:21:40.000Z</time>
      </trkpt>
      <trkpt lat="45.17041" lon="5.8446">
        <ele>724.23</ele>
        <time>2020-10-11T11:21:45.000Z</time>
      </trkpt>
      <trkpt lat="45.17053" lon="5.84485">
        <ele>725.06</ele>
        <time>2020-10-11T11:21:50.000Z</time>
      </trkpt>
      <trkpt lat="45.17065" lon="5.8451">
        <ele>726.44</ele>
        <time>2020-10-11T11:21:55.000Z</time>
      </trkpt>
      <trkpt lat="45.17077" lon="5.84535">
        <ele>727.58</ele>
        <time>2020-10-11T11:22:00.000Z</time>
      </trkpt>
      <trkpt lat="45.17089" lon="5.84557">
        <ele>731.67</ele>
        <time>2020-10-11T11:22:05.000Z</time>
      </trkpt>
      <trkpt lat="45.17101" lon="5.84576">
        <ele>732.57</ele>
        <time>2020-10-11T11:22:10.000Z</time>
      </trkpt>
      <trkpt lat="45.17115" lon="5.84599">
        <ele>730.55</ele>
        <time>2020-10-11T11:22:15.000Z</time>
      </trkpt>
      <trkpt lat="45.17129" lon="5.8462">
        <ele>732.08</ele>
        <time>2020-10-11T11:22:20.000Z</time>
      </trkpt>
      <trkpt lat="45.17144" lon="5.84641">
        <ele>734.43</ele>
        <time>2020-10-11T11:22:25.000Z</time>
      </trkpt>
      <trkpt lat="45.17155" lon="5.84659">
        <ele>731</ele>
        <time>2020-10-11T11:22:30.000Z</time>
      </trkpt>
      <trkpt lat="45.17164" lon="5.84664">
        <ele>731.87</ele>
        <time>2020-10-11T11:22:35.000Z</time>
      </trkpt>
      <trkpt lat="45.17173" lon="5.84668">
        <ele>730.73</ele>
        <time>2020-10-11T11:22:53.000Z</time>
      </trkpt>
      <trkpt lat="45.1718" lon="5.84678">
        <ele>734.57</ele>
        <time>2020-10-11T11:22:58.000Z</time>
      </trkpt>
      <trkpt lat="45.1719" lon="5.84696">
        <ele>732.82</ele>
        <time>2020-10-11T11:23:03.000Z</time>
      </trkpt>
      <trkpt lat="45.17205" lon="5.84724">
        <ele>730.35</ele>
        <time>2020-10-11T11:23:08.000Z</time>
      </trkpt>
      <trkpt lat="45.17199" lon="5.84757">
        <ele>727.02</ele>
        <time>2020-10-11T11:23:13.000Z</time>
      </trkpt>
      <trkpt lat="45.17177" lon="5.84791">
        <ele>725.14</ele>
        <time>2020-10-11T11:23:18.000Z</time>
      </trkpt>
      <trkpt lat="45.17164" lon="5.84841">
        <ele>727.48</ele>
        <time>2020-10-11T11:23:23.000Z</time>
      </trkpt>
      <trkpt lat="45.17159" lon="5.84903">
        <ele>726.06</ele>
        <time>2020-10-11T11:23:28.000Z</time>
      </trkpt>
      <trkpt lat="45.1716" lon="5.84969">
        <ele>723.42</ele>
        <time>2020-10-11T11:23:33.000Z</time>
      </trkpt>
      <trkpt lat="45.17167" lon="5.85038">
        <ele>721.82</ele>
        <time>2020-10-11T11:23:38.000Z</time>
      </trkpt>
      <trkpt lat="45.17133" lon="5.85085">
        <ele>721.75</ele>
        <time>2020-10-11T11:23:43.000Z</time>
      </trkpt>
      <trkpt lat="45.17085" lon="5.85115">
        <ele>718.61</ele>
        <time>2020-10-11T11:23:48.000Z</time>
      </trkpt>
      <trkpt lat="45.17031" lon="5.8514">
        <ele>717.37</ele>
        <time>2020-10-11T11:23:53.000Z</time>
      </trkpt>
      <trkpt lat="45.16979" lon="5.85137">
        <ele>713.32</ele>
        <time>2020-10-11T11:23:58.000Z</time>
      </trkpt>
      <trkpt lat="45.16956" lon="5.85202">
        <ele>709.71</ele>
        <time>2020-10-11T11:24:03.000Z</time>
      </trkpt>
      <trkpt lat="45.16948" lon="5.85282">
        <ele>709.42</ele>
        <time>2020-10-11T11:24:08.000Z</time>
      </trkpt>
      <trkpt lat="45.16989" lon="5.85344">
        <ele>712.2</ele>
        <time>2020-10-11T11:24:13.000Z</time>
      </trkpt>
      <trkpt lat="45.17024" lon="5.85402">
        <ele>708.34</ele>
        <time>2020-10-11T11:24:18.000Z</time>
      </trkpt>
      <trkpt lat="45.17043" lon="5.85473">
        <ele>705.57</ele>
        <time>2020-10-11T11:24:23.000Z</time>
      </trkpt>
      <trkpt lat="45.17068" lon="5.85541">
        <ele>696.7</ele>
        <time>2020-10-11T11:24:28.000Z</time>
      </trkpt>
      <trkpt lat="45.17102" lon="5.85614">
        <ele>692.16</ele>
        <time>2020-10-11T11:24:33.000Z</time>
      </trkpt>
      <trkpt lat="45.17131" lon="5.85692">
        <ele>682.98</ele>
        <time>2020-10-11T11:24:38.000Z</time>
      </trkpt>
      <trkpt lat="45.17178" lon="5.8575">
        <ele>680.56</ele>
        <time>2020-10-11T11:24:43.000Z</time>
      </trkpt>
      <trkpt lat="45.17218" lon="5.85822">
        <ele>681.61</ele>
        <time>2020-10-11T11:24:48.000Z</time>
      </trkpt>
      <trkpt lat="45.1726" lon="5.85883">
        <ele>674.41</ele>
        <time>2020-10-11T11:24:53.000Z</time>
      </trkpt>
      <trkpt lat="45.17281" lon="5.85938">
        <ele>673.71</ele>
        <time>2020-10-11T11:24:58.000Z</time>
      </trkpt>
      <trkpt lat="45.17309" lon="5.8591">
        <ele>669.28</ele>
        <time>2020-10-11T11:25:03.000Z</time>
      </trkpt>
      <trkpt lat="45.17297" lon="5.85847">
        <ele>665.29</ele>
        <time>2020-10-11T11:25:08.000Z</time>
      </trkpt>
      <trkpt lat="45.17287" lon="5.85777">
        <ele>663.28</ele>
        <time>2020-10-11T11:25:13.000Z</time>
      </trkpt>
      <trkpt lat="45.17271" lon="5.85714">
        <ele>658.43</ele>
        <time>2020-10-11T11:25:18.000Z</time>
      </trkpt>
      <trkpt lat="45.17304" lon="5.85731">
        <ele>650.54</ele>
        <time>2020-10-11T11:25:23.000Z</time>
      </trkpt>
      <trkpt lat="45.17339" lon="5.85775">
        <ele>641.52</ele>
        <time>2020-10-11T11:25:28.000Z</time>
      </trkpt>
      <trkpt lat="45.17372" lon="5.85817">
        <ele>636.58</ele>
        <time>2020-10-11T11:25:33.000Z</time>
      </trkpt>
      <trkpt lat="45.17409" lon="5.85858">
        <ele>631</ele>
        <time>2020-10-11T11:25:38.000Z</time>
      </trkpt>
      <trkpt lat="45.17445" lon="5.85903">
        <ele>629.29</ele>
        <time>2020-10-11T11:25:43.000Z</time>
      </trkpt>
      <trkpt lat="45.17466" lon="5.85955">
        <ele>626.08</ele>
        <time>2020-10-11T11:25:48.000Z</time>
      </trkpt>
      <trkpt lat="45.1749" lon="5.85998">
        <ele>627.38</ele>
        <time>2020-10-11T11:25:53.000Z</time>
      </trkpt>
      <trkpt lat="45.17527" lon="5.86002">
        <ele>622.67</ele>
        <time>2020-10-11T11:25:58.000Z</time>
      </trkpt>
      <trkpt lat="45.17563" lon="5.86014">
        <ele>618.25</ele>
        <time>2020-10-11T11:26:03.000Z</time>
      </trkpt>
      <trkpt lat="45.176" lon="5.86032">
        <ele>618.56</ele>
        <time>2020-10-11T11:26:08.000Z</time>
      </trkpt>
      <trkpt lat="45.1762" lon="5.86072">
        <ele>614.61</ele>
        <time>2020-10-11T11:26:13.000Z</time>
      </trkpt>
      <trkpt lat="45.17631" lon="5.86118">
        <ele>614.98</ele>
        <time>2020-10-11T11:26:18.000Z</time>
      </trkpt>
      <trkpt lat="45.17644" lon="5.86159">
        <ele>613.32</ele>
        <time>2020-10-11T11:26:23.000Z</time>
      </trkpt>
      <trkpt lat="45.17668" lon="5.86201">
        <ele>610.34</ele>
        <time>2020-10-11T11:26:28.000Z</time>
      </trkpt>
      <trkpt lat="45.17695" lon="5.86246">
        <ele>606.43</ele>
        <time>2020-10-11T11:26:33.000Z</time>
      </trkpt>
      <trkpt lat="45.17711" lon="5.86301">
        <ele>604.9</ele>
        <time>2020-10-11T11:26:38.000Z</time>
      </trkpt>
      <trkpt lat="45.17737" lon="5.86332">
        <ele>607.54</ele>
        <time>2020-10-11T11:26:43.000Z</time>
      </trkpt>
      <trkpt lat="45.17762" lon="5.8634">
        <ele>611.85</ele>
        <time>2020-10-11T11:26:48.000Z</time>
      </trkpt>
      <trkpt lat="45.17778" lon="5.86352">
        <ele>609.86</ele>
        <time>2020-10-11T11:26:53.000Z</time>
      </trkpt>
      <trkpt lat="45.17792" lon="5.86371">
        <ele>608.6</ele>
        <time>2020-10-11T11:26:58.000Z</time>
      </trkpt>
      <trkpt lat="45.17814" lon="5.86386">
        <ele>612.34</ele>
        <time>2020-10-11T11:27:03.000Z</time>
      </trkpt>
      <trkpt lat="45.17832" lon="5.86385">
        <ele>611.99</ele>
        <time>2020-10-11T11:27:08.000Z</time>
      </trkpt>
      <trkpt lat="45.17851" lon="5.86379">
        <ele>614.43</ele>
        <time>2020-10-11T11:27:13.000Z</time>
      </trkpt>
      <trkpt lat="45.17873" lon="5.86376">
        <ele>617.99</ele>
        <time>2020-10-11T11:27:18.000Z</time>
      </trkpt>
      <trkpt lat="45.17892" lon="5.86374">
        <ele>617.3</ele>
        <time>2020-10-11T11:27:23.000Z</time>
      </trkpt>
      <trkpt lat="45.17909" lon="5.8637">
        <ele>614.14</ele>
        <time>2020-10-11T11:27:28.000Z</time>
      </trkpt>
      <trkpt lat="45.17926" lon="5.86368">
        <ele>612.2</ele>
        <time>2020-10-11T11:27:33.000Z</time>
      </trkpt>
      <trkpt lat="45.1794" lon="5.86367">
        <ele>612.32</ele>
        <time>2020-10-11T11:27:38.000Z</time>
      </trkpt>
      <trkpt lat="45.17954" lon="5.86365">
        <ele>612.46</ele>
        <time>2020-10-11T11:27:43.000Z</time>
      </trkpt>
      <trkpt lat="45.17971" lon="5.86361">
        <ele>612.29</ele>
        <time>2020-10-11T11:27:48.000Z</time>
      </trkpt>
      <trkpt lat="45.17994" lon="5.8636">
        <ele>608.99</ele>
        <time>2020-10-11T11:27:53.000Z</time>
      </trkpt>
      <trkpt lat="45.18016" lon="5.86388">
        <ele>608.87</ele>
        <time>2020-10-11T11:27:58.000Z</time>
      </trkpt>
      <trkpt lat="45.18019" lon="5.86437">
        <ele>608.03</ele>
        <time>2020-10-11T11:28:03.000Z</time>
      </trkpt>
      <trkpt lat="45.18016" lon="5.86483">
        <ele>605.07</ele>
        <time>2020-10-11T11:28:08.000Z</time>
      </trkpt>
      <trkpt lat="45.18016" lon="5.8653">
        <ele>603.02</ele>
        <time>2020-10-11T11:28:13.000Z</time>
      </trkpt>
      <trkpt lat="45.18012" lon="5.86587">
        <ele>597.86</ele>
        <time>2020-10-11T11:28:18.000Z</time>
      </trkpt>
      <trkpt lat="45.18008" lon="5.86657">
        <ele>597.67</ele>
        <time>2020-10-11T11:28:23.000Z</time>
      </trkpt>
      <trkpt lat="45.18015" lon="5.86725">
        <ele>596.04</ele>
        <time>2020-10-11T11:28:28.000Z</time>
      </trkpt>
      <trkpt lat="45.18021" lon="5.86797">
        <ele>590.44</ele>
        <time>2020-10-11T11:28:33.000Z</time>
      </trkpt>
      <trkpt lat="45.18039" lon="5.86879">
        <ele>586.35</ele>
        <time>2020-10-11T11:28:38.000Z</time>
      </trkpt>
      <trkpt lat="45.18048" lon="5.8696">
        <ele>581.09</ele>
        <time>2020-10-11T11:28:43.000Z</time>
      </trkpt>
      <trkpt lat="45.18046" lon="5.87043">
        <ele>578.34</ele>
        <time>2020-10-11T11:28:48.000Z</time>
      </trkpt>
      <trkpt lat="45.18039" lon="5.87127">
        <ele>577.24</ele>
        <time>2020-10-11T11:28:53.000Z</time>
      </trkpt>
      <trkpt lat="45.18051" lon="5.87201">
        <ele>575.88</ele>
        <time>2020-10-11T11:28:58.000Z</time>
      </trkpt>
      <trkpt lat="45.18077" lon="5.8723">
        <ele>572.52</ele>
        <time>2020-10-11T11:29:03.000Z</time>
      </trkpt>
      <trkpt lat="45.18094" lon="5.87197">
        <ele>568.87</ele>
        <time>2020-10-11T11:29:08.000Z</time>
      </trkpt>
      <trkpt lat="45.18108" lon="5.8717">
        <ele>568.93</ele>
        <time>2020-10-11T11:29:13.000Z</time>
      </trkpt>
      <trkpt lat="45.18128" lon="5.87154">
        <ele>570.36</ele>
        <time>2020-10-11T11:29:18.000Z</time>
      </trkpt>
      <trkpt lat="45.18146" lon="5.87141">
        <ele>568.82</ele>
        <time>2020-10-11T11:29:23.000Z</time>
      </trkpt>
      <trkpt lat="45.18163" lon="5.87129">
        <ele>571.05</ele>
        <time>2020-10-11T11:29:28.000Z</time>
      </trkpt>
      <trkpt lat="45.18181" lon="5.87124">
        <ele>571.11</ele>
        <time>2020-10-11T11:29:33.000Z</time>
      </trkpt>
      <trkpt lat="45.18199" lon="5.87117">
        <ele>574.08</ele>
        <time>2020-10-11T11:29:38.000Z</time>
      </trkpt>
      <trkpt lat="45.18209" lon="5.87088">
        <ele>576.4</ele>
        <time>2020-10-11T11:29:43.000Z</time>
      </trkpt>
      <trkpt lat="45.18216" lon="5.87058">
        <ele>577</ele>
        <time>2020-10-11T11:29:48.000Z</time>
      </trkpt>
      <trkpt lat="45.18222" lon="5.87028">
        <ele>578.27</ele>
        <time>2020-10-11T11:29:53.000Z</time>
      </trkpt>
      <trkpt lat="45.18229" lon="5.87">
        <ele>579.34</ele>
        <time>2020-10-11T11:29:58.000Z</time>
      </trkpt>
      <trkpt lat="45.18234" lon="5.86974">
        <ele>578.54</ele>
        <time>2020-10-11T11:30:03.000Z</time>
      </trkpt>
      <trkpt lat="45.18239" lon="5.86943">
        <ele>581.23</ele>
        <time>2020-10-11T11:30:08.000Z</time>
      </trkpt>
      <trkpt lat="45.1825" lon="5.86916">
        <ele>585.49</ele>
        <time>2020-10-11T11:30:13.000Z</time>
      </trkpt>
      <trkpt lat="45.18257" lon="5.86886">
        <ele>588.95</ele>
        <time>2020-10-11T11:30:18.000Z</time>
      </trkpt>
      <trkpt lat="45.18264" lon="5.8686">
        <ele>594.02</ele>
        <time>2020-10-11T11:30:23.000Z</time>
      </trkpt>
      <trkpt lat="45.18269" lon="5.86831">
        <ele>596.83</ele>
        <time>2020-10-11T11:30:28.000Z</time>
      </trkpt>
      <trkpt lat="45.1828" lon="5.868">
        <ele>594.35</ele>
        <time>2020-10-11T11:30:33.000Z</time>
      </trkpt>
      <trkpt lat="45.18283" lon="5.86772">
        <ele>599.39</ele>
        <time>2020-10-11T11:30:38.000Z</time>
      </trkpt>
      <trkpt lat="45.18291" lon="5.86742">
        <ele>601.82</ele>
        <time>2020-10-11T11:30:43.000Z</time>
      </trkpt>
      <trkpt lat="45.18298" lon="5.86717">
        <ele>604.65</ele>
        <time>2020-10-11T11:30:48.000Z</time>
      </trkpt>
      <trkpt lat="45.18312" lon="5.86697">
        <ele>608.31</ele>
        <time>2020-10-11T11:30:53.000Z</time>
      </trkpt>
      <trkpt lat="45.18328" lon="5.8668">
        <ele>610.21</ele>
        <time>2020-10-11T11:30:58.000Z</time>
      </trkpt>
      <trkpt lat="45.18343" lon="5.86661">
        <ele>610.81</ele>
        <time>2020-10-11T11:31:03.000Z</time>
      </trkpt>
      <trkpt lat="45.18358" lon="5.86642">
        <ele>610.16</ele>
        <time>2020-10-11T11:31:08.000Z</time>
      </trkpt>
      <trkpt lat="45.1837" lon="5.86621">
        <ele>609.35</ele>
        <time>2020-10-11T11:31:13.000Z</time>
      </trkpt>
      <trkpt lat="45.18385" lon="5.86601">
        <ele>611.76</ele>
        <time>2020-10-11T11:31:18.000Z</time>
      </trkpt>
      <trkpt lat="45.18403" lon="5.86591">
        <ele>613.4</ele>
        <time>2020-10-11T11:31:23.000Z</time>
      </trkpt>
      <trkpt lat="45.1842" lon="5.86602">
        <ele>612.85</ele>
        <time>2020-10-11T11:31:28.000Z</time>
      </trkpt>
      <trkpt lat="45.18436" lon="5.86618">
        <ele>616.44</ele>
        <time>2020-10-11T11:31:33.000Z</time>
      </trkpt>
      <trkpt lat="45.18454" lon="5.86635">
        <ele>617.8</ele>
        <time>2020-10-11T11:31:38.000Z</time>
      </trkpt>
      <trkpt lat="45.18472" lon="5.8665">
        <ele>623.9</ele>
        <time>2020-10-11T11:31:43.000Z</time>
      </trkpt>
      <trkpt lat="45.18487" lon="5.86667">
        <ele>624.73</ele>
        <time>2020-10-11T11:31:48.000Z</time>
      </trkpt>
      <trkpt lat="45.18497" lon="5.8669">
        <ele>621.72</ele>
        <time>2020-10-11T11:31:53.000Z</time>
      </trkpt>
      <trkpt lat="45.18505" lon="5.86713">
        <ele>622.28</ele>
        <time>2020-10-11T11:31:58.000Z</time>
      </trkpt>
      <trkpt lat="45.18493" lon="5.86709">
        <ele>622.68</ele>
        <time>2020-10-11T11:32:03.000Z</time>
      </trkpt>
      <trkpt lat="45.18476" lon="5.86699">
        <ele>623.67</ele>
        <time>2020-10-11T11:32:08.000Z</time>
      </trkpt>
      <trkpt lat="45.18477" lon="5.8672">
        <ele>624.15</ele>
        <time>2020-10-11T11:32:13.000Z</time>
      </trkpt>
      <trkpt lat="45.18486" lon="5.86744">
        <ele>624.03</ele>
        <time>2020-10-11T11:32:18.000Z</time>
      </trkpt>
      <trkpt lat="45.18472" lon="5.86759">
        <ele>620.4</ele>
        <time>2020-10-11T11:32:23.000Z</time>
      </trkpt>
      <trkpt lat="45.18449" lon="5.86778">
        <ele>621.6</ele>
        <time>2020-10-11T11:32:28.000Z</time>
      </trkpt>
      <trkpt lat="45.18434" lon="5.86803">
        <ele>623</ele>
        <time>2020-10-11T11:32:33.000Z</time>
      </trkpt>
      <trkpt lat="45.1843" lon="5.86827">
        <ele>627.38</ele>
        <time>2020-10-11T11:32:38.000Z</time>
      </trkpt>
      <trkpt lat="45.18423" lon="5.86844">
        <ele>630.92</ele>
        <time>2020-10-11T11:32:43.000Z</time>
      </trkpt>
      <trkpt lat="45.18419" lon="5.86856">
        <ele>630.33</ele>
        <time>2020-10-11T11:32:54.000Z</time>
      </trkpt>
      <trkpt lat="45.18415" lon="5.86869">
        <ele>629.55</ele>
        <time>2020-10-11T11:32:59.000Z</time>
      </trkpt>
      <trkpt lat="45.18408" lon="5.86886">
        <ele>631.01</ele>
        <time>2020-10-11T11:33:04.000Z</time>
      </trkpt>
      <trkpt lat="45.184" lon="5.86907">
        <ele>637.89</ele>
        <time>2020-10-11T11:33:09.000Z</time>
      </trkpt>
      <trkpt lat="45.18391" lon="5.86928">
        <ele>639.11</ele>
        <time>2020-10-11T11:33:14.000Z</time>
      </trkpt>
      <trkpt lat="45.18384" lon="5.86949">
        <ele>636.9</ele>
        <time>2020-10-11T11:33:19.000Z</time>
      </trkpt>
      <trkpt lat="45.1838" lon="5.86967">
        <ele>641.47</ele>
        <time>2020-10-11T11:33:24.000Z</time>
      </trkpt>
      <trkpt lat="45.18374" lon="5.86986">
        <ele>641.99</ele>
        <time>2020-10-11T11:33:29.000Z</time>
      </trkpt>
      <trkpt lat="45.18373" lon="5.87007">
        <ele>643.53</ele>
        <time>2020-10-11T11:33:34.000Z</time>
      </trkpt>
      <trkpt lat="45.18372" lon="5.87029">
        <ele>644.12</ele>
        <time>2020-10-11T11:33:39.000Z</time>
      </trkpt>
      <trkpt lat="45.18372" lon="5.87047">
        <ele>644.34</ele>
        <time>2020-10-11T11:33:44.000Z</time>
      </trkpt>
      <trkpt lat="45.18373" lon="5.87065">
        <ele>646.31</ele>
        <time>2020-10-11T11:33:49.000Z</time>
      </trkpt>
      <trkpt lat="45.18369" lon="5.8709">
        <ele>649.13</ele>
        <time>2020-10-11T11:33:54.000Z</time>
      </trkpt>
      <trkpt lat="45.18366" lon="5.87115">
        <ele>648.86</ele>
        <time>2020-10-11T11:33:59.000Z</time>
      </trkpt>
      <trkpt lat="45.18365" lon="5.87137">
        <ele>652.69</ele>
        <time>2020-10-11T11:34:04.000Z</time>
      </trkpt>
      <trkpt lat="45.18363" lon="5.87163">
        <ele>653.6</ele>
        <time>2020-10-11T11:34:09.000Z</time>
      </trkpt>
      <trkpt lat="45.18373" lon="5.87181">
        <ele>658.66</ele>
        <time>2020-10-11T11:34:14.000Z</time>
      </trkpt>
      <trkpt lat="45.18389" lon="5.87197">
        <ele>662.44</ele>
        <time>2020-10-11T11:34:19.000Z</time>
      </trkpt>
      <trkpt lat="45.184" lon="5.8721">
        <ele>663.09</ele>
        <time>2020-10-11T11:34:24.000Z</time>
      </trkpt>
      <trkpt lat="45.18411" lon="5.87225">
        <ele>664.57</ele>
        <time>2020-10-11T11:34:29.000Z</time>
      </trkpt>
      <trkpt lat="45.18404" lon="5.87242">
        <ele>667.29</ele>
        <time>2020-10-11T11:34:34.000Z</time>
      </trkpt>
      <trkpt lat="45.18391" lon="5.87261">
        <ele>666.14</ele>
        <time>2020-10-11T11:34:39.000Z</time>
      </trkpt>
      <trkpt lat="45.18383" lon="5.87283">
        <ele>667.65</ele>
        <time>2020-10-11T11:34:44.000Z</time>
      </trkpt>
      <trkpt lat="45.18383" lon="5.87305">
        <ele>666.43</ele>
        <time>2020-10-11T11:34:49.000Z</time>
      </trkpt>
      <trkpt lat="45.18389" lon="5.87325">
        <ele>673.61</ele>
        <time>2020-10-11T11:34:54.000Z</time>
      </trkpt>
      <trkpt lat="45.18392" lon="5.87347">
        <ele>672.79</ele>
        <time>2020-10-11T11:34:59.000Z</time>
      </trkpt>
      <trkpt lat="45.18392" lon="5.87368">
        <ele>677.41</ele>
        <time>2020-10-11T11:35:04.000Z</time>
      </trkpt>
      <trkpt lat="45.18387" lon="5.87388">
        <ele>678.99</ele>
        <time>2020-10-11T11:35:09.000Z</time>
      </trkpt>
      <trkpt lat="45.18378" lon="5.87388">
        <ele>675.71</ele>
        <time>2020-10-11T11:35:14.000Z</time>
      </trkpt>
      <trkpt lat="45.18377" lon="5.87382">
        <ele>681.04</ele>
        <time>2020-10-11T11:35:30.000Z</time>
      </trkpt>
    </trkseg>
  </trk>
</gpx>